AAL113 LEBL-KMIA
Flight info
| Callsign | AAL113 |
|---|---|
| Flight time | N/A |
| Altitude | 36000 |
| Route | GRAUS DCT POSSY DCT MARIO DCT SURCO DCT RONNY/N0484F350 M601 BLV M190 SNR/N0483F370 M190 LASKU/N0481F360 DCT VES DCT KOPAS/M084F360 DCT 43N020W/M084F380 43N030W 42N040W 40N050W/M084F400 34N060W DCT NUMBR DCT SHEIL M330 MILLE/N0479F400 DCT ZQA VIICE2 |
| Aircraft | B772/H-SDE2E3FGHIJ5LORVWXY/LB1D1 |
Departure
| Time | 2026-05-06 05:05 |
|---|---|
| Airport | Josep Tarradellas Barcelona-El Prat Airport (LEBL) |
Arrival
| Time | N/A |
|---|---|
| Airport | Miami International Airport (KMIA) |
| Time | Latitude | Longitude | Altitude | Speed | Heading |
|---|---|---|---|---|---|
| 2026-05-06 04:08 | 41.28558 | 2.07393 | 29 ft | 0 kts | 336° |
| 2026-05-06 04:55 | 41.28557 | 2.07393 | 29 ft | 1 kts | 336° |
| 2026-05-06 04:55 | 41.28543 | 2.07401 | 29 ft | 2 kts | 335° |
| 2026-05-06 04:56 | 41.28530 | 2.07409 | 29 ft | 2 kts | 335° |
| 2026-05-06 04:56 | 41.28516 | 2.07417 | 29 ft | 2 kts | 336° |
| 2026-05-06 04:56 | 41.28503 | 2.07425 | 29 ft | 2 kts | 356° |
| 2026-05-06 04:56 | 41.28489 | 2.07421 | 29 ft | 2 kts | 36° |
| 2026-05-06 04:57 | 41.28479 | 2.07407 | 29 ft | 1 kts | 68° |
| 2026-05-06 04:57 | 41.28478 | 2.07403 | 29 ft | 0 kts | 70° |
| 2026-05-06 05:00 | 41.28485 | 2.07423 | 29 ft | 6 kts | 65° |
| 2026-05-06 05:00 | 41.28505 | 2.07484 | 29 ft | 5 kts | 77° |
| 2026-05-06 05:00 | 41.28479 | 2.07527 | 29 ft | 7 kts | 163° |
| 2026-05-06 05:00 | 41.28436 | 2.07496 | 29 ft | 8 kts | 237° |
| 2026-05-06 05:01 | 41.28411 | 2.07424 | 29 ft | 8 kts | 247° |
| 2026-05-06 05:01 | 41.28381 | 2.07356 | 29 ft | 8 kts | 219° |
| 2026-05-06 05:01 | 41.28347 | 2.07337 | 29 ft | 0 kts | 184° |
| 2026-05-06 05:02 | 41.28345 | 2.07337 | 29 ft | 1 kts | 183° |
| 2026-05-06 05:03 | 41.28301 | 2.07348 | 29 ft | 10 kts | 160° |
| 2026-05-06 05:03 | 41.28239 | 2.07406 | 29 ft | 11 kts | 115° |
| 2026-05-06 05:03 | 41.28249 | 2.07489 | 29 ft | 0 kts | 65° |
| 2026-05-06 05:04 | 41.28312 | 2.07674 | 29 ft | 56 kts | 65° |
| 2026-05-06 05:04 | 41.28578 | 2.08445 | 29 ft | 124 kts | 65° |
| 2026-05-06 05:05 | 41.29018 | 2.09703 | 88 ft | 171 kts | 64° |
| 2026-05-06 05:05 | 41.29418 | 2.11208 | 676 ft | 176 kts | 78° |
| 2026-05-06 05:05 | 41.29555 | 2.12828 | 1418 ft | 179 kts | 88° |
| 2026-05-06 05:05 | 41.29424 | 2.14393 | 2093 ft | 172 kts | 96° |
| 2026-05-06 05:06 | 41.29233 | 2.16007 | 2384 ft | 177 kts | 97° |
| 2026-05-06 05:06 | 41.29050 | 2.17640 | 2725 ft | 179 kts | 96° |
| 2026-05-06 05:06 | 41.28870 | 2.19255 | 3082 ft | 180 kts | 97° |
| 2026-05-06 05:06 | 41.28678 | 2.20967 | 3206 ft | 197 kts | 97° |
| 2026-05-06 05:07 | 41.28465 | 2.22855 | 3343 ft | 214 kts | 97° |
| 2026-05-06 05:07 | 41.28241 | 2.24833 | 3728 ft | 221 kts | 97° |
| 2026-05-06 05:07 | 41.28055 | 2.26887 | 4240 ft | 224 kts | 86° |
| 2026-05-06 05:07 | 41.28410 | 2.28869 | 4685 ft | 225 kts | 59° |
| 2026-05-06 05:08 | 41.29395 | 2.30446 | 5076 ft | 229 kts | 33° |
| 2026-05-06 05:08 | 41.30894 | 2.31327 | 5228 ft | 245 kts | 6° |
| 2026-05-06 05:08 | 41.32661 | 2.31539 | 5505 ft | 261 kts | 1° |
| 2026-05-06 05:08 | 41.34498 | 2.31714 | 5999 ft | 270 kts | 2° |
| 2026-05-06 05:09 | 41.36376 | 2.31936 | 6580 ft | 274 kts | 2° |
| 2026-05-06 05:09 | 41.38283 | 2.32177 | 7198 ft | 278 kts | 2° |
| 2026-05-06 05:09 | 41.40195 | 2.32422 | 7789 ft | 281 kts | 2° |
| 2026-05-06 05:09 | 41.42148 | 2.32673 | 8364 ft | 284 kts | 2° |
| 2026-05-06 05:10 | 41.44134 | 2.32969 | 8915 ft | 288 kts | 6° |
| 2026-05-06 05:10 | 41.46098 | 2.33475 | 9419 ft | 292 kts | 8° |
| 2026-05-06 05:10 | 41.48090 | 2.34001 | 9934 ft | 295 kts | 7° |
| 2026-05-06 05:10 | 41.50129 | 2.34512 | 10226 ft | 306 kts | 7° |
| 2026-05-06 05:11 | 41.52286 | 2.35038 | 10385 ft | 322 kts | 7° |
| 2026-05-06 05:11 | 41.54569 | 2.35593 | 10552 ft | 338 kts | 7° |
| 2026-05-06 05:11 | 41.56937 | 2.36146 | 10738 ft | 353 kts | 4° |
| 2026-05-06 05:11 | 41.59426 | 2.36291 | 10928 ft | 365 kts | 354° |
| 2026-05-06 05:12 | 41.61971 | 2.35801 | 11233 ft | 373 kts | 342° |
| 2026-05-06 05:12 | 41.64388 | 2.34674 | 11804 ft | 374 kts | 332° |
| 2026-05-06 05:12 | 41.66639 | 2.32927 | 12523 ft | 371 kts | 321° |
| 2026-05-06 05:12 | 41.68563 | 2.30708 | 13208 ft | 369 kts | 311° |
| 2026-05-06 05:13 | 41.70168 | 2.28022 | 13882 ft | 369 kts | 301° |
| 2026-05-06 05:13 | 41.71358 | 2.25031 | 14569 ft | 369 kts | 290° |
| 2026-05-06 05:13 | 41.72127 | 2.21743 | 15315 ft | 369 kts | 280° |
| 2026-05-06 05:13 | 41.72516 | 2.18363 | 16079 ft | 369 kts | 276° |
| 2026-05-06 05:14 | 41.72838 | 2.15000 | 16817 ft | 370 kts | 276° |
| 2026-05-06 05:14 | 41.73157 | 2.11574 | 17500 ft | 373 kts | 276° |
| 2026-05-06 05:14 | 41.73473 | 2.08157 | 18176 ft | 376 kts | 276° |
| 2026-05-06 05:14 | 41.73794 | 2.04647 | 18860 ft | 378 kts | 275° |
| 2026-05-06 05:15 | 41.74111 | 2.01158 | 19531 ft | 380 kts | 275° |
| 2026-05-06 05:15 | 41.74424 | 1.97698 | 20251 ft | 381 kts | 275° |
| 2026-05-06 05:15 | 41.74742 | 1.94158 | 20905 ft | 383 kts | 274° |
| 2026-05-06 05:15 | 41.75054 | 1.90671 | 21478 ft | 385 kts | 274° |
| 2026-05-06 05:16 | 41.75374 | 1.87085 | 22119 ft | 387 kts | 274° |
| 2026-05-06 05:16 | 41.75690 | 1.83532 | 22741 ft | 388 kts | 273° |
| 2026-05-06 05:16 | 41.76007 | 1.79958 | 23336 ft | 390 kts | 273° |
| 2026-05-06 05:16 | 41.76324 | 1.76362 | 24020 ft | 390 kts | 273° |
| 2026-05-06 05:17 | 41.76640 | 1.72776 | 24602 ft | 392 kts | 273° |
| 2026-05-06 05:17 | 41.76986 | 1.69156 | 25016 ft | 399 kts | 276° |
| 2026-05-06 05:17 | 41.77558 | 1.65493 | 25437 ft | 406 kts | 278° |
| 2026-05-06 05:17 | 41.78171 | 1.61794 | 25977 ft | 408 kts | 278° |
| 2026-05-06 05:18 | 41.78784 | 1.58088 | 26510 ft | 410 kts | 278° |
| 2026-05-06 05:18 | 41.79398 | 1.54364 | 26975 ft | 414 kts | 278° |
| 2026-05-06 05:18 | 41.80018 | 1.50591 | 27397 ft | 418 kts | 278° |
| 2026-05-06 05:18 | 41.80638 | 1.46797 | 27797 ft | 422 kts | 278° |
| 2026-05-06 05:19 | 41.81267 | 1.42946 | 28207 ft | 425 kts | 278° |
| 2026-05-06 05:19 | 41.81895 | 1.39095 | 28668 ft | 427 kts | 278° |
| 2026-05-06 05:19 | 41.82530 | 1.35189 | 29114 ft | 430 kts | 278° |
| 2026-05-06 05:19 | 41.83170 | 1.31239 | 29565 ft | 432 kts | 277° |
| 2026-05-06 05:20 | 41.83807 | 1.27297 | 30027 ft | 433 kts | 278° |
| 2026-05-06 05:20 | 41.84444 | 1.23349 | 30538 ft | 433 kts | 277° |
| 2026-05-06 05:20 | 41.85075 | 1.19433 | 31025 ft | 433 kts | 278° |
| 2026-05-06 05:20 | 41.85715 | 1.15451 | 31531 ft | 432 kts | 278° |
| 2026-05-06 05:21 | 41.86340 | 1.11549 | 32010 ft | 431 kts | 277° |
| 2026-05-06 05:21 | 41.86969 | 1.07614 | 32418 ft | 431 kts | 278° |
| 2026-05-06 05:21 | 41.87597 | 1.03672 | 32812 ft | 432 kts | 278° |
| 2026-05-06 05:21 | 41.88225 | 0.99721 | 33203 ft | 432 kts | 278° |
| 2026-05-06 05:22 | 41.88853 | 0.95764 | 33574 ft | 433 kts | 278° |
| 2026-05-06 05:22 | 41.89475 | 0.91833 | 33941 ft | 433 kts | 278° |
| 2026-05-06 05:22 | 41.90095 | 0.87907 | 34283 ft | 433 kts | 278° |
| 2026-05-06 05:22 | 41.90718 | 0.83950 | 34626 ft | 432 kts | 278° |
| 2026-05-06 05:23 | 41.91334 | 0.80031 | 34882 ft | 433 kts | 278° |
| 2026-05-06 05:23 | 41.91956 | 0.76065 | 35063 ft | 436 kts | 278° |
| 2026-05-06 05:23 | 41.93208 | 0.68044 | 35437 ft | 440 kts | 278° |
| 2026-05-06 05:24 | 41.93830 | 0.64051 | 35689 ft | 440 kts | 279° |
| 2026-05-06 05:24 | 41.94454 | 0.60033 | 35911 ft | 441 kts | 279° |
| 2026-05-06 05:24 | 41.95706 | 0.51940 | 35934 ft | 441 kts | 279° |
| 2026-05-06 05:25 | 41.96940 | 0.43927 | 35926 ft | 438 kts | 279° |
| 2026-05-06 05:25 | 41.98522 | 0.36061 | 35929 ft | 445 kts | 290° |
| 2026-05-06 05:26 | 42.01289 | 0.28543 | 35930 ft | 449 kts | 292° |
| 2026-05-06 05:26 | 42.04104 | 0.21083 | 35931 ft | 448 kts | 292° |
| 2026-05-06 05:27 | 42.06900 | 0.13629 | 35937 ft | 448 kts | 292° |
| 2026-05-06 05:27 | 42.09687 | 0.06170 | 35937 ft | 448 kts | 293° |
| 2026-05-06 05:28 | 42.12484 | -0.01346 | 35919 ft | 449 kts | 293° |
| 2026-05-06 05:28 | 42.15255 | -0.08812 | 35938 ft | 449 kts | 292° |
| 2026-05-06 05:29 | 42.18051 | -0.16370 | 35948 ft | 451 kts | 293° |
| 2026-05-06 05:29 | 42.20838 | -0.23919 | 35947 ft | 449 kts | 293° |
| 2026-05-06 05:30 | 42.23609 | -0.31451 | 35947 ft | 452 kts | 293° |
| 2026-05-06 05:30 | 42.26409 | -0.39082 | 36009 ft | 453 kts | 293° |
| 2026-05-06 05:31 | 42.29141 | -0.46543 | 35955 ft | 443 kts | 293° |
| 2026-05-06 05:31 | 42.31874 | -0.54032 | 35957 ft | 450 kts | 293° |
| 2026-05-06 05:32 | 42.34633 | -0.61609 | 35960 ft | 448 kts | 293° |
| 2026-05-06 05:32 | 42.37384 | -0.69181 | 35969 ft | 448 kts | 293° |
| 2026-05-06 05:33 | 42.40119 | -0.76731 | 35983 ft | 450 kts | 293° |
| 2026-05-06 05:33 | 42.42850 | -0.84287 | 35962 ft | 447 kts | 293° |
| 2026-05-06 05:34 | 42.45569 | -0.91841 | 35967 ft | 450 kts | 293° |
| 2026-05-06 05:34 | 42.48314 | -0.99486 | 35974 ft | 450 kts | 293° |
| 2026-05-06 05:35 | 42.51040 | -1.07095 | 35983 ft | 449 kts | 293° |
| 2026-05-06 05:35 | 42.53749 | -1.14677 | 35970 ft | 450 kts | 293° |
| 2026-05-06 05:36 | 42.56475 | -1.22322 | 35986 ft | 451 kts | 293° |
| 2026-05-06 05:36 | 42.59196 | -1.29976 | 35975 ft | 449 kts | 293° |
| 2026-05-06 05:37 | 42.61901 | -1.37606 | 35981 ft | 451 kts | 293° |
| 2026-05-06 05:37 | 42.64616 | -1.45278 | 35993 ft | 451 kts | 293° |
| 2026-05-06 05:38 | 42.67313 | -1.52922 | 35972 ft | 449 kts | 294° |
| 2026-05-06 05:38 | 42.70024 | -1.60633 | 35990 ft | 452 kts | 294° |
| 2026-05-06 05:39 | 42.72711 | -1.68301 | 35996 ft | 451 kts | 293° |
| 2026-05-06 05:39 | 42.75927 | -1.75654 | 35990 ft | 453 kts | 300° |
| 2026-05-06 05:40 | 42.79317 | -1.82846 | 35981 ft | 454 kts | 300° |
| 2026-05-06 05:40 | 42.82725 | -1.90100 | 35973 ft | 455 kts | 300° |
| 2026-05-06 05:41 | 42.86098 | -1.97299 | 35966 ft | 455 kts | 300° |
| 2026-05-06 05:41 | 42.89510 | -2.04596 | 35961 ft | 458 kts | 300° |
| 2026-05-06 05:42 | 42.92901 | -2.11866 | 35967 ft | 455 kts | 300° |
| 2026-05-06 05:42 | 42.96286 | -2.19144 | 35962 ft | 456 kts | 300° |
| 2026-05-06 05:43 | 42.99679 | -2.26434 | 35977 ft | 457 kts | 301° |
| 2026-05-06 05:43 | 43.03088 | -2.33686 | 35981 ft | 456 kts | 301° |
| 2026-05-06 05:44 | 43.06517 | -2.41001 | 35974 ft | 457 kts | 301° |
| 2026-05-06 05:44 | 43.09924 | -2.48291 | 35972 ft | 458 kts | 301° |
| 2026-05-06 05:45 | 43.13341 | -2.55621 | 35983 ft | 457 kts | 301° |
| 2026-05-06 05:45 | 43.16742 | -2.62934 | 35988 ft | 459 kts | 301° |
| 2026-05-06 05:46 | 43.20171 | -2.70329 | 36006 ft | 457 kts | 301° |
| 2026-05-06 05:46 | 43.23576 | -2.77689 | 36005 ft | 457 kts | 301° |
| 2026-05-06 05:47 | 43.26957 | -2.85015 | 36003 ft | 458 kts | 301° |
| 2026-05-06 05:47 | 43.30056 | -2.92606 | 35996 ft | 457 kts | 291° |
| 2026-05-06 05:48 | 43.31673 | -3.00988 | 36001 ft | 457 kts | 282° |
| 2026-05-06 05:48 | 43.32975 | -3.09577 | 36003 ft | 458 kts | 282° |
| 2026-05-06 05:49 | 43.34256 | -3.18117 | 36012 ft | 457 kts | 282° |
| 2026-05-06 05:49 | 43.35525 | -3.26639 | 36005 ft | 458 kts | 282° |
| 2026-05-06 05:50 | 43.36798 | -3.35198 | 36005 ft | 457 kts | 282° |
| 2026-05-06 05:50 | 43.38086 | -3.43719 | 36009 ft | 458 kts | 282° |
| 2026-05-06 05:51 | 43.39373 | -3.52302 | 36010 ft | 457 kts | 282° |
| 2026-05-06 05:51 | 43.40640 | -3.60789 | 36010 ft | 457 kts | 282° |
| 2026-05-06 05:52 | 43.41913 | -3.69373 | 36012 ft | 458 kts | 282° |
| 2026-05-06 05:52 | 43.43176 | -3.77940 | 36016 ft | 457 kts | 282° |
| 2026-05-06 05:53 | 43.44434 | -3.86524 | 36011 ft | 459 kts | 282° |
| 2026-05-06 05:53 | 43.45299 | -3.95193 | 36008 ft | 459 kts | 276° |
| 2026-05-06 05:54 | 43.45842 | -4.03927 | 36201 ft | 462 kts | 276° |
| 2026-05-06 05:54 | 43.46112 | -4.08310 | 36479 ft | 460 kts | 276° |
| 2026-05-06 05:54 | 43.46379 | -4.12678 | 36720 ft | 459 kts | 276° |
| 2026-05-06 05:55 | 43.46645 | -4.17030 | 36925 ft | 458 kts | 276° |
| 2026-05-06 05:55 | 43.46909 | -4.21378 | 36998 ft | 461 kts | 276° |
| 2026-05-06 05:55 | 43.47438 | -4.30187 | 36999 ft | 461 kts | 276° |
| 2026-05-06 05:56 | 43.47914 | -4.38912 | 37007 ft | 459 kts | 275° |
| 2026-05-06 05:56 | 43.48328 | -4.47707 | 37005 ft | 460 kts | 275° |
| 2026-05-06 05:57 | 43.48769 | -4.56412 | 37004 ft | 459 kts | 276° |
| 2026-05-06 05:57 | 43.49246 | -4.65186 | 37011 ft | 459 kts | 275° |
| 2026-05-06 05:58 | 43.49716 | -4.73980 | 37012 ft | 460 kts | 275° |
| 2026-05-06 05:58 | 43.50176 | -4.82719 | 37013 ft | 459 kts | 275° |
| 2026-05-06 05:59 | 43.50632 | -4.91530 | 37015 ft | 462 kts | 275° |
| 2026-05-06 05:59 | 43.51076 | -5.00267 | 36947 ft | 455 kts | 275° |
| 2026-05-06 06:00 | 43.51292 | -5.04564 | 36746 ft | 450 kts | 275° |
| 2026-05-06 06:00 | 43.51507 | -5.08859 | 36236 ft | 453 kts | 276° |
| 2026-05-06 06:00 | 43.51725 | -5.13250 | 36055 ft | 454 kts | 276° |
| 2026-05-06 06:00 | 43.51938 | -5.17574 | 36088 ft | 459 kts | 276° |
| 2026-05-06 06:01 | 43.52366 | -5.26383 | 36078 ft | 462 kts | 276° |
| 2026-05-06 06:01 | 43.52781 | -5.35073 | 36084 ft | 458 kts | 276° |
| 2026-05-06 06:02 | 43.53195 | -5.43869 | 36080 ft | 461 kts | 275° |
| 2026-05-06 06:02 | 43.53603 | -5.52685 | 36081 ft | 461 kts | 276° |
| 2026-05-06 06:03 | 43.54000 | -5.61404 | 36087 ft | 459 kts | 276° |
| 2026-05-06 06:03 | 43.54395 | -5.70229 | 36077 ft | 461 kts | 275° |
| 2026-05-06 06:04 | 43.54781 | -5.79019 | 36043 ft | 460 kts | 275° |
| 2026-05-06 06:04 | 43.55158 | -5.87754 | 36038 ft | 460 kts | 275° |
| 2026-05-06 06:05 | 43.55407 | -5.93610 | 36041 ft | 459 kts | 275° |
| 2026-05-06 06:05 | 43.55999 | -6.05007 | 36040 ft | 460 kts | 279° |
| 2026-05-06 06:06 | 43.56864 | -6.13739 | 36032 ft | 459 kts | 279° |
| 2026-05-06 06:06 | 43.57701 | -6.22411 | 36030 ft | 459 kts | 279° |
| 2026-05-06 06:07 | 43.58518 | -6.31105 | 36040 ft | 459 kts | 279° |
| 2026-05-06 06:07 | 43.59327 | -6.39870 | 36031 ft | 459 kts | 279° |
| 2026-05-06 06:08 | 43.60116 | -6.48527 | 36072 ft | 461 kts | 279° |
| 2026-05-06 06:08 | 43.60515 | -6.52949 | 35783 ft | 460 kts | 279° |
| 2026-05-06 06:08 | 43.60901 | -6.57247 | 35947 ft | 457 kts | 279° |
| 2026-05-06 06:09 | 43.61681 | -6.65994 | 36030 ft | 464 kts | 278° |
| 2026-05-06 06:09 | 43.62460 | -6.74814 | 36042 ft | 464 kts | 278° |
| 2026-05-06 06:10 | 43.63227 | -6.83596 | 36044 ft | 461 kts | 278° |
| 2026-05-06 06:10 | 43.63989 | -6.92386 | 36041 ft | 463 kts | 278° |
| 2026-05-06 06:11 | 43.64739 | -7.01122 | 36039 ft | 461 kts | 278° |
| 2026-05-06 06:11 | 43.65488 | -7.09931 | 36030 ft | 462 kts | 278° |
| 2026-05-06 06:12 | 43.66226 | -7.18682 | 36031 ft | 462 kts | 278° |
| 2026-05-06 06:12 | 43.66962 | -7.27490 | 36035 ft | 463 kts | 278° |
| 2026-05-06 06:13 | 43.67691 | -7.36314 | 36039 ft | 463 kts | 278° |
| 2026-05-06 06:13 | 43.68410 | -7.45083 | 36034 ft | 464 kts | 278° |
| 2026-05-06 06:14 | 43.69126 | -7.53909 | 36030 ft | 463 kts | 278° |
| 2026-05-06 06:14 | 43.69833 | -7.62709 | 36028 ft | 464 kts | 278° |
| 2026-05-06 06:15 | 43.70536 | -7.71546 | 36035 ft | 463 kts | 277° |
| 2026-05-06 06:15 | 43.71225 | -7.80301 | 36035 ft | 462 kts | 277° |
| 2026-05-06 06:16 | 43.71915 | -7.89137 | 36039 ft | 463 kts | 277° |
| 2026-05-06 06:16 | 43.72595 | -7.97944 | 36038 ft | 462 kts | 277° |
| 2026-05-06 06:17 | 43.73272 | -8.06812 | 36040 ft | 464 kts | 277° |
| 2026-05-06 06:17 | 43.73938 | -8.15621 | 36040 ft | 464 kts | 277° |
| 2026-05-06 06:18 | 43.74599 | -8.24452 | 36039 ft | 463 kts | 277° |
| 2026-05-06 06:18 | 43.75253 | -8.33280 | 36045 ft | 463 kts | 277° |
| 2026-05-06 06:19 | 43.75900 | -8.42114 | 36043 ft | 462 kts | 277° |
| 2026-05-06 06:19 | 43.76339 | -8.48163 | 36043 ft | 463 kts | 277° |
| 2026-05-06 06:20 | 43.76974 | -8.56982 | 36045 ft | 463 kts | 277° |
| 2026-05-06 06:20 | 43.77529 | -8.64781 | 36047 ft | 463 kts | 277° |
| 2026-05-06 06:21 | 43.78151 | -8.73616 | 36052 ft | 463 kts | 277° |
| 2026-05-06 06:21 | 43.78767 | -8.82449 | 36052 ft | 463 kts | 277° |
| 2026-05-06 06:22 | 43.79375 | -8.91271 | 36052 ft | 462 kts | 277° |
| 2026-05-06 06:22 | 43.79975 | -9.00075 | 36056 ft | 463 kts | 277° |
| 2026-05-06 06:23 | 43.80570 | -9.08915 | 36056 ft | 462 kts | 277° |
| 2026-05-06 06:23 | 43.81159 | -9.17767 | 36053 ft | 462 kts | 277° |
| 2026-05-06 06:24 | 43.81739 | -9.26590 | 36049 ft | 461 kts | 277° |
| 2026-05-06 06:24 | 43.82309 | -9.35364 | 36044 ft | 461 kts | 277° |
| 2026-05-06 06:25 | 43.82877 | -9.44204 | 36045 ft | 462 kts | 277° |
| 2026-05-06 06:26 | 43.83714 | -9.57441 | 36048 ft | 463 kts | 277° |
| 2026-05-06 06:26 | 43.84267 | -9.66320 | 36049 ft | 462 kts | 276° |
| 2026-05-06 06:27 | 43.84810 | -9.75156 | 36050 ft | 462 kts | 276° |
| 2026-05-06 06:27 | 43.85345 | -9.83973 | 36054 ft | 462 kts | 276° |
| 2026-05-06 06:28 | 43.85875 | -9.92820 | 36054 ft | 462 kts | 276° |
| 2026-05-06 06:28 | 43.86396 | -10.01651 | 36056 ft | 462 kts | 276° |
| 2026-05-06 06:29 | 43.86911 | -10.10471 | 36056 ft | 462 kts | 276° |
| 2026-05-06 06:29 | 43.87422 | -10.19342 | 36059 ft | 464 kts | 276° |
| 2026-05-06 06:30 | 43.87926 | -10.28227 | 36061 ft | 463 kts | 276° |
| 2026-05-06 06:30 | 43.88421 | -10.37058 | 36059 ft | 463 kts | 276° |
| 2026-05-06 06:31 | 43.88913 | -10.45974 | 36062 ft | 463 kts | 276° |
| 2026-05-06 06:31 | 43.89392 | -10.54779 | 36065 ft | 463 kts | 276° |
| 2026-05-06 06:32 | 43.89871 | -10.63699 | 36065 ft | 463 kts | 276° |
| 2026-05-06 06:32 | 43.90339 | -10.72544 | 36068 ft | 463 kts | 275° |
| 2026-05-06 06:33 | 43.90802 | -10.81455 | 36073 ft | 464 kts | 275° |
| 2026-05-06 06:33 | 43.91258 | -10.90329 | 36074 ft | 464 kts | 275° |
| 2026-05-06 06:34 | 43.91707 | -10.99223 | 36070 ft | 464 kts | 275° |
| 2026-05-06 06:34 | 43.92147 | -11.08070 | 36068 ft | 465 kts | 275° |
| 2026-05-06 06:35 | 43.92585 | -11.17011 | 36069 ft | 464 kts | 275° |
| 2026-05-06 06:35 | 43.93014 | -11.25922 | 36073 ft | 465 kts | 275° |
| 2026-05-06 06:36 | 43.93437 | -11.34846 | 36065 ft | 465 kts | 274° |
| 2026-05-06 06:36 | 43.93852 | -11.43761 | 36066 ft | 465 kts | 274° |
| 2026-05-06 06:37 | 43.94261 | -11.52690 | 36064 ft | 465 kts | 274° |
| 2026-05-06 06:37 | 43.94664 | -11.61621 | 36065 ft | 467 kts | 274° |
| 2026-05-06 06:38 | 43.95059 | -11.70569 | 36074 ft | 467 kts | 274° |
| 2026-05-06 06:38 | 43.95448 | -11.79518 | 36070 ft | 467 kts | 273° |
| 2026-05-06 06:39 | 43.95830 | -11.88469 | 36066 ft | 468 kts | 273° |
| 2026-05-06 06:39 | 43.96206 | -11.97454 | 36065 ft | 467 kts | 274° |
| 2026-05-06 06:40 | 43.96576 | -12.06445 | 36063 ft | 468 kts | 274° |
| 2026-05-06 06:40 | 43.96938 | -12.15440 | 36070 ft | 468 kts | 274° |
| 2026-05-06 06:41 | 43.97292 | -12.24396 | 36068 ft | 468 kts | 274° |
| 2026-05-06 06:41 | 43.97468 | -12.28906 | 36382 ft | 468 kts | 274° |
| 2026-05-06 06:41 | 43.97642 | -12.33428 | 36197 ft | 471 kts | 274° |
| 2026-05-06 06:41 | 43.97813 | -12.37918 | 36096 ft | 467 kts | 274° |
| 2026-05-06 06:42 | 43.97984 | -12.42432 | 36087 ft | 464 kts | 274° |
| 2026-05-06 06:42 | 43.98318 | -12.51429 | 36084 ft | 469 kts | 273° |
| 2026-05-06 06:43 | 43.98643 | -12.60367 | 36079 ft | 466 kts | 274° |
| 2026-05-06 06:43 | 43.98964 | -12.69397 | 36083 ft | 468 kts | 273° |
| 2026-05-06 06:44 | 43.99277 | -12.78391 | 36083 ft | 467 kts | 273° |
| 2026-05-06 06:44 | 43.99582 | -12.87363 | 36098 ft | 467 kts | 273° |
| 2026-05-06 06:45 | 43.99875 | -12.96311 | 36079 ft | 468 kts | 271° |
| 2026-05-06 06:45 | 43.99296 | -13.05294 | 36083 ft | 468 kts | 263° |
| 2026-05-06 06:46 | 43.98359 | -13.14229 | 36090 ft | 468 kts | 262° |
| 2026-05-06 06:46 | 43.97395 | -13.23102 | 36086 ft | 469 kts | 262° |
| 2026-05-06 06:47 | 43.96407 | -13.31989 | 36095 ft | 468 kts | 262° |
| 2026-05-06 06:47 | 43.95403 | -13.40905 | 36094 ft | 468 kts | 262° |
| 2026-05-06 06:48 | 43.94388 | -13.49806 | 36096 ft | 468 kts | 262° |
| 2026-05-06 06:48 | 43.93360 | -13.58749 | 36101 ft | 468 kts | 263° |
| 2026-05-06 06:49 | 43.92335 | -13.67588 | 36114 ft | 468 kts | 262° |
| 2026-05-06 06:49 | 43.91296 | -13.76482 | 36121 ft | 469 kts | 262° |
| 2026-05-06 06:50 | 43.90252 | -13.85356 | 36115 ft | 468 kts | 262° |
| 2026-05-06 06:50 | 43.89197 | -13.94260 | 36128 ft | 469 kts | 262° |
| 2026-05-06 06:51 | 43.88139 | -14.03130 | 36127 ft | 469 kts | 262° |
| 2026-05-06 06:51 | 43.87076 | -14.11972 | 36121 ft | 468 kts | 262° |
| 2026-05-06 06:52 | 43.86000 | -14.20872 | 36129 ft | 468 kts | 263° |
| 2026-05-06 06:52 | 43.84929 | -14.29667 | 36138 ft | 467 kts | 263° |
| 2026-05-06 06:53 | 43.83844 | -14.38512 | 36131 ft | 468 kts | 263° |
| 2026-05-06 06:53 | 43.82750 | -14.47383 | 36133 ft | 468 kts | 263° |
| 2026-05-06 06:54 | 43.81650 | -14.56232 | 36129 ft | 467 kts | 263° |
| 2026-05-06 06:54 | 43.80546 | -14.65060 | 36134 ft | 467 kts | 262° |
| 2026-05-06 06:55 | 43.79441 | -14.73841 | 36117 ft | 466 kts | 263° |
| 2026-05-06 06:55 | 43.78320 | -14.82689 | 36131 ft | 467 kts | 263° |
| 2026-05-06 06:56 | 43.77197 | -14.91497 | 36125 ft | 468 kts | 263° |
| 2026-05-06 06:56 | 43.76069 | -15.00293 | 36123 ft | 466 kts | 263° |
| 2026-05-06 06:57 | 43.74937 | -15.09056 | 36132 ft | 467 kts | 263° |
| 2026-05-06 06:57 | 43.73788 | -15.17899 | 36136 ft | 467 kts | 263° |
| 2026-05-06 06:58 | 43.72641 | -15.26666 | 36131 ft | 465 kts | 263° |
| 2026-05-06 06:58 | 43.71489 | -15.35426 | 36136 ft | 466 kts | 264° |
| 2026-05-06 06:59 | 43.70329 | -15.44185 | 36139 ft | 465 kts | 264° |
| 2026-05-06 06:59 | 43.69160 | -15.52966 | 36133 ft | 465 kts | 264° |
| 2026-05-06 07:00 | 43.68089 | -15.60959 | 36142 ft | 464 kts | 264° |
| 2026-05-06 07:00 | 43.66917 | -15.69652 | 36151 ft | 465 kts | 264° |
| 2026-05-06 07:01 | 43.65727 | -15.78431 | 36150 ft | 465 kts | 264° |
| 2026-05-06 07:01 | 43.65137 | -15.82765 | 35875 ft | 465 kts | 264° |
| 2026-05-06 07:01 | 43.64534 | -15.87174 | 36247 ft | 465 kts | 264° |
| 2026-05-06 07:02 | 43.63332 | -15.95941 | 36019 ft | 467 kts | 264° |
| 2026-05-06 07:02 | 43.63129 | -15.97410 | 36097 ft | 466 kts | 264° |
| 2026-05-06 07:03 | 43.60988 | -16.12870 | 36158 ft | 468 kts | 264° |
| 2026-05-06 07:03 | 43.59766 | -16.21619 | 36160 ft | 467 kts | 264° |
| 2026-05-06 07:04 | 43.58745 | -16.28900 | 36162 ft | 467 kts | 264° |
| 2026-05-06 07:04 | 43.57197 | -16.39858 | 36156 ft | 465 kts | 265° |
| 2026-05-06 07:05 | 43.55959 | -16.48569 | 36162 ft | 466 kts | 265° |
| 2026-05-06 07:05 | 43.54709 | -16.57313 | 36172 ft | 463 kts | 265° |
| 2026-05-06 07:06 | 43.53463 | -16.65974 | 36168 ft | 464 kts | 264° |
| 2026-05-06 07:06 | 43.52201 | -16.74713 | 36174 ft | 465 kts | 264° |
| 2026-05-06 07:07 | 43.50940 | -16.83377 | 36187 ft | 463 kts | 265° |
| 2026-05-06 07:07 | 43.49671 | -16.92057 | 36186 ft | 463 kts | 265° |
| 2026-05-06 07:08 | 43.48394 | -17.00731 | 36175 ft | 460 kts | 265° |
| 2026-05-06 07:08 | 43.47119 | -17.09367 | 36178 ft | 464 kts | 265° |
| 2026-05-06 07:09 | 43.45833 | -17.18013 | 36186 ft | 462 kts | 265° |
| 2026-05-06 07:09 | 43.44544 | -17.26634 | 36186 ft | 461 kts | 265° |
| 2026-05-06 07:10 | 43.43255 | -17.35211 | 36184 ft | 462 kts | 265° |
| 2026-05-06 07:10 | 43.41946 | -17.43874 | 36190 ft | 462 kts | 265° |
| 2026-05-06 07:11 | 43.40639 | -17.52474 | 36189 ft | 462 kts | 265° |
| 2026-05-06 07:11 | 43.39330 | -17.61043 | 36186 ft | 460 kts | 265° |
| 2026-05-06 07:12 | 43.38008 | -17.69654 | 36201 ft | 462 kts | 265° |
| 2026-05-06 07:12 | 43.36672 | -17.78305 | 36209 ft | 462 kts | 264° |
| 2026-05-06 07:13 | 43.35339 | -17.86894 | 36207 ft | 462 kts | 265° |
| 2026-05-06 07:13 | 43.33991 | -17.95534 | 36201 ft | 463 kts | 264° |
| 2026-05-06 07:14 | 43.32639 | -18.04144 | 36203 ft | 460 kts | 265° |
| 2026-05-06 07:14 | 43.31279 | -18.12776 | 36208 ft | 463 kts | 265° |
| 2026-05-06 07:15 | 43.29915 | -18.21375 | 36208 ft | 460 kts | 265° |
| 2026-05-06 07:15 | 43.28558 | -18.29896 | 36211 ft | 461 kts | 265° |
| 2026-05-06 07:16 | 43.27190 | -18.38440 | 36197 ft | 460 kts | 265° |
| 2026-05-06 07:16 | 43.25817 | -18.46964 | 36202 ft | 456 kts | 266° |
| 2026-05-06 07:17 | 43.24440 | -18.55488 | 36206 ft | 460 kts | 266° |
| 2026-05-06 07:17 | 43.23052 | -18.64025 | 36208 ft | 460 kts | 266° |
| 2026-05-06 07:18 | 43.21672 | -18.72463 | 36220 ft | 456 kts | 266° |
| 2026-05-06 07:18 | 43.20274 | -18.80989 | 36225 ft | 460 kts | 266° |
| 2026-05-06 07:19 | 43.18874 | -18.89456 | 36222 ft | 454 kts | 266° |
| 2026-05-06 07:19 | 43.17479 | -18.97880 | 36224 ft | 458 kts | 267° |
| 2026-05-06 07:20 | 43.16058 | -19.06406 | 36233 ft | 455 kts | 266° |
| 2026-05-06 07:20 | 43.14658 | -19.14764 | 36232 ft | 456 kts | 267° |
| 2026-05-06 07:21 | 43.13247 | -19.23138 | 36226 ft | 450 kts | 267° |
| 2026-05-06 07:21 | 43.11842 | -19.31460 | 36231 ft | 454 kts | 267° |
| 2026-05-06 07:22 | 43.10406 | -19.39925 | 36232 ft | 456 kts | 266° |
| 2026-05-06 07:22 | 43.08968 | -19.48336 | 36230 ft | 453 kts | 267° |
| 2026-05-06 07:23 | 43.07538 | -19.56679 | 36229 ft | 455 kts | 267° |
| 2026-05-06 07:23 | 43.06086 | -19.65100 | 36227 ft | 452 kts | 266° |
| 2026-05-06 07:24 | 43.04656 | -19.73355 | 36231 ft | 451 kts | 267° |
| 2026-05-06 07:24 | 43.03198 | -19.81743 | 36236 ft | 451 kts | 266° |
| 2026-05-06 07:25 | 43.01726 | -19.90175 | 36233 ft | 453 kts | 267° |
| 2026-05-06 07:25 | 43.00296 | -19.98475 | 36229 ft | 450 kts | 270° |
| 2026-05-06 07:25 | 42.99963 | -20.02661 | 36224 ft | 439 kts | 278° |
| 2026-05-06 07:26 | 43.00079 | -20.06794 | 36317 ft | 437 kts | 283° |
| 2026-05-06 07:26 | 43.00310 | -20.10904 | 36846 ft | 434 kts | 283° |
| 2026-05-06 07:26 | 43.00527 | -20.14956 | 37401 ft | 431 kts | 282° |
| 2026-05-06 07:26 | 43.00732 | -20.19022 | 37711 ft | 431 kts | 282° |
| 2026-05-06 07:27 | 43.00928 | -20.23110 | 37940 ft | 433 kts | 281° |
| 2026-05-06 07:27 | 43.01116 | -20.27215 | 38102 ft | 436 kts | 280° |
| 2026-05-06 07:27 | 43.01299 | -20.31361 | 38219 ft | 438 kts | 280° |
| 2026-05-06 07:28 | 43.01650 | -20.39670 | 38222 ft | 441 kts | 281° |
| 2026-05-06 07:28 | 43.02153 | -20.52191 | 38219 ft | 439 kts | 279° |
| 2026-05-06 07:29 | 43.02477 | -20.60507 | 38222 ft | 440 kts | 280° |
| 2026-05-06 07:29 | 43.02797 | -20.68870 | 38226 ft | 444 kts | 279° |
| 2026-05-06 07:30 | 43.03108 | -20.77219 | 38226 ft | 441 kts | 279° |
| 2026-05-06 07:30 | 43.03414 | -20.85580 | 38225 ft | 442 kts | 278° |
| 2026-05-06 07:31 | 43.03710 | -20.93889 | 38225 ft | 438 kts | 279° |
| 2026-05-06 07:31 | 43.04003 | -21.02211 | 38226 ft | 442 kts | 279° |
| 2026-05-06 07:32 | 43.04292 | -21.10642 | 38227 ft | 442 kts | 279° |
| 2026-05-06 07:32 | 43.04569 | -21.18911 | 38240 ft | 437 kts | 279° |
| 2026-05-06 07:33 | 43.04841 | -21.27180 | 38224 ft | 437 kts | 278° |
| 2026-05-06 07:33 | 43.05107 | -21.35445 | 38225 ft | 439 kts | 279° |
| 2026-05-06 07:34 | 43.05369 | -21.43802 | 38227 ft | 437 kts | 279° |
| 2026-05-06 07:34 | 43.05624 | -21.52080 | 38220 ft | 439 kts | 279° |
| 2026-05-06 07:35 | 43.05871 | -21.60352 | 38227 ft | 434 kts | 279° |
| 2026-05-06 07:35 | 43.06113 | -21.68574 | 38233 ft | 439 kts | 278° |
| 2026-05-06 07:36 | 43.06348 | -21.76875 | 38234 ft | 433 kts | 278° |
| 2026-05-06 07:36 | 43.06578 | -21.85104 | 38231 ft | 436 kts | 278° |
| 2026-05-06 07:37 | 43.06802 | -21.93368 | 38222 ft | 435 kts | 278° |
| 2026-05-06 07:37 | 43.06981 | -22.00205 | 38230 ft | 433 kts | 278° |
| 2026-05-06 07:38 | 43.07119 | -22.05520 | 38232 ft | 432 kts | 278° |
| 2026-05-06 07:38 | 43.07328 | -22.13772 | 38236 ft | 434 kts | 278° |
| 2026-05-06 07:39 | 43.07530 | -22.21973 | 38240 ft | 432 kts | 278° |
| 2026-05-06 07:39 | 43.07726 | -22.30186 | 38236 ft | 431 kts | 278° |
| 2026-05-06 07:40 | 43.07913 | -22.38301 | 38246 ft | 429 kts | 278° |
| 2026-05-06 07:40 | 43.08098 | -22.46468 | 38239 ft | 431 kts | 278° |
| 2026-05-06 07:41 | 43.08275 | -22.54620 | 38238 ft | 432 kts | 278° |
| 2026-05-06 07:41 | 43.08445 | -22.62755 | 38239 ft | 428 kts | 278° |
| 2026-05-06 07:42 | 43.08611 | -22.70891 | 38239 ft | 432 kts | 278° |
| 2026-05-06 07:42 | 43.08773 | -22.79112 | 38250 ft | 432 kts | 278° |
| 2026-05-06 07:43 | 43.08925 | -22.87253 | 38251 ft | 426 kts | 277° |
| 2026-05-06 07:43 | 43.09072 | -22.95334 | 38247 ft | 427 kts | 277° |
| 2026-05-06 07:44 | 43.09214 | -23.03410 | 38246 ft | 429 kts | 278° |
| 2026-05-06 07:44 | 43.09351 | -23.11583 | 38248 ft | 427 kts | 277° |
| 2026-05-06 07:45 | 43.09480 | -23.19643 | 38248 ft | 427 kts | 277° |
| 2026-05-06 07:45 | 43.09606 | -23.27793 | 38245 ft | 428 kts | 277° |
| 2026-05-06 07:46 | 43.09725 | -23.35932 | 38241 ft | 428 kts | 277° |
| 2026-05-06 07:46 | 43.09838 | -23.44036 | 38246 ft | 428 kts | 277° |
| 2026-05-06 07:47 | 43.09943 | -23.52063 | 38241 ft | 426 kts | 277° |
| 2026-05-06 07:47 | 43.10045 | -23.60152 | 38239 ft | 426 kts | 277° |
| 2026-05-06 07:48 | 43.10141 | -23.68280 | 38253 ft | 425 kts | 277° |
| 2026-05-06 07:48 | 43.10231 | -23.76364 | 38253 ft | 427 kts | 277° |
| 2026-05-06 07:49 | 43.10315 | -23.84462 | 38251 ft | 425 kts | 277° |
| 2026-05-06 07:49 | 43.10393 | -23.92490 | 38262 ft | 425 kts | 276° |
| 2026-05-06 07:50 | 43.10467 | -24.00624 | 38264 ft | 426 kts | 277° |
| 2026-05-06 07:50 | 43.10533 | -24.08652 | 38274 ft | 427 kts | 276° |
| 2026-05-06 07:51 | 43.10594 | -24.16738 | 38264 ft | 423 kts | 276° |
| 2026-05-06 07:51 | 43.10651 | -24.24759 | 38262 ft | 427 kts | 276° |
| 2026-05-06 07:52 | 43.10701 | -24.32891 | 38271 ft | 427 kts | 276° |
| 2026-05-06 07:52 | 43.10744 | -24.40890 | 38267 ft | 422 kts | 276° |
| 2026-05-06 07:53 | 43.10784 | -24.48990 | 38260 ft | 428 kts | 276° |
| 2026-05-06 07:53 | 43.10816 | -24.57018 | 38262 ft | 424 kts | 276° |
| 2026-05-06 07:54 | 43.10844 | -24.65103 | 38261 ft | 423 kts | 275° |
| 2026-05-06 07:54 | 43.10865 | -24.73105 | 38275 ft | 424 kts | 275° |
| 2026-05-06 07:55 | 43.10882 | -24.81136 | 38268 ft | 426 kts | 275° |
| 2026-05-06 07:55 | 43.10891 | -24.89181 | 38265 ft | 421 kts | 275° |
| 2026-05-06 07:56 | 43.10897 | -24.97223 | 38266 ft | 425 kts | 275° |
| 2026-05-06 07:56 | 43.10896 | -25.05223 | 38259 ft | 423 kts | 275° |
| 2026-05-06 07:57 | 43.10889 | -25.13263 | 38263 ft | 423 kts | 275° |
| 2026-05-06 07:57 | 43.10877 | -25.21292 | 38264 ft | 424 kts | 275° |
| 2026-05-06 07:58 | 43.10859 | -25.29267 | 38260 ft | 422 kts | 275° |
| 2026-05-06 07:58 | 43.10836 | -25.37275 | 38257 ft | 421 kts | 275° |
| 2026-05-06 07:59 | 43.10807 | -25.45208 | 38257 ft | 420 kts | 275° |
| 2026-05-06 07:59 | 43.10774 | -25.53222 | 38256 ft | 422 kts | 275° |
| 2026-05-06 08:00 | 43.10733 | -25.61191 | 38255 ft | 420 kts | 275° |
| 2026-05-06 08:00 | 43.10689 | -25.69134 | 38268 ft | 422 kts | 274° |
| 2026-05-06 08:01 | 43.10638 | -25.77136 | 38261 ft | 420 kts | 274° |
| 2026-05-06 08:01 | 43.10581 | -25.85130 | 38262 ft | 420 kts | 274° |
| 2026-05-06 08:02 | 43.10519 | -25.93132 | 38266 ft | 421 kts | 274° |
| 2026-05-06 08:02 | 43.10460 | -26.00069 | 38258 ft | 418 kts | 274° |
| 2026-05-06 08:03 | 43.10389 | -26.07986 | 38268 ft | 419 kts | 274° |
| 2026-05-06 08:03 | 43.10311 | -26.15985 | 38265 ft | 418 kts | 274° |
| 2026-05-06 08:04 | 43.10229 | -26.23877 | 38264 ft | 419 kts | 274° |
| 2026-05-06 08:04 | 43.10140 | -26.31801 | 38263 ft | 417 kts | 274° |
| 2026-05-06 08:05 | 43.10047 | -26.39700 | 38259 ft | 417 kts | 274° |
| 2026-05-06 08:05 | 43.09948 | -26.47617 | 38256 ft | 414 kts | 273° |
| 2026-05-06 08:06 | 43.09845 | -26.55434 | 38262 ft | 417 kts | 274° |
| 2026-05-06 08:06 | 43.09735 | -26.63322 | 38263 ft | 413 kts | 273° |
| 2026-05-06 08:07 | 43.09621 | -26.71201 | 38267 ft | 415 kts | 273° |
| 2026-05-06 08:07 | 43.09501 | -26.79064 | 38264 ft | 416 kts | 272° |
| 2026-05-06 08:08 | 43.09375 | -26.86936 | 38270 ft | 415 kts | 273° |
| 2026-05-06 08:08 | 43.09245 | -26.94763 | 38274 ft | 414 kts | 272° |
| 2026-05-06 08:09 | 43.09110 | -27.02570 | 38257 ft | 411 kts | 272° |
| 2026-05-06 08:09 | 43.08969 | -27.10401 | 38260 ft | 414 kts | 272° |
| 2026-05-06 08:10 | 43.08823 | -27.18195 | 38254 ft | 410 kts | 272° |
| 2026-05-06 08:10 | 43.08673 | -27.25952 | 38254 ft | 410 kts | 272° |
| 2026-05-06 08:11 | 43.08517 | -27.33783 | 38251 ft | 413 kts | 272° |
| 2026-05-06 08:11 | 43.08354 | -27.41607 | 38246 ft | 409 kts | 272° |
| 2026-05-06 08:12 | 43.08189 | -27.49379 | 38250 ft | 411 kts | 272° |
| 2026-05-06 08:12 | 43.08018 | -27.57081 | 38259 ft | 407 kts | 272° |
| 2026-05-06 08:13 | 43.07842 | -27.64846 | 38249 ft | 411 kts | 272° |
| 2026-05-06 08:13 | 43.07659 | -27.72625 | 38259 ft | 408 kts | 271° |
| 2026-05-06 08:14 | 43.07474 | -27.80355 | 38266 ft | 410 kts | 271° |
| 2026-05-06 08:14 | 43.07281 | -27.88093 | 38263 ft | 405 kts | 271° |
| 2026-05-06 08:15 | 43.07086 | -27.95795 | 38266 ft | 408 kts | 271° |
| 2026-05-06 08:15 | 43.06884 | -28.03531 | 38265 ft | 407 kts | 271° |
| 2026-05-06 08:16 | 43.06678 | -28.11200 | 38261 ft | 403 kts | 271° |
| 2026-05-06 08:16 | 43.06467 | -28.18885 | 38264 ft | 405 kts | 271° |
| 2026-05-06 08:17 | 43.06253 | -28.26505 | 38257 ft | 402 kts | 271° |
| 2026-05-06 08:17 | 43.06034 | -28.34140 | 38259 ft | 406 kts | 271° |
| 2026-05-06 08:18 | 43.05808 | -28.41783 | 38255 ft | 402 kts | 271° |
| 2026-05-06 08:18 | 43.05579 | -28.49373 | 38251 ft | 401 kts | 271° |
| 2026-05-06 08:19 | 43.05345 | -28.56989 | 38260 ft | 402 kts | 271° |
| 2026-05-06 08:19 | 43.05107 | -28.64566 | 38259 ft | 400 kts | 270° |
| 2026-05-06 08:20 | 43.04865 | -28.72099 | 38272 ft | 402 kts | 270° |
| 2026-05-06 08:20 | 43.04614 | -28.79736 | 38274 ft | 400 kts | 270° |
| 2026-05-06 08:21 | 43.04362 | -28.87274 | 38270 ft | 399 kts | 270° |
| 2026-05-06 08:21 | 43.04105 | -28.94798 | 38266 ft | 397 kts | 270° |
| 2026-05-06 08:22 | 43.03846 | -29.02269 | 38258 ft | 395 kts | 270° |
| 2026-05-06 08:22 | 43.03580 | -29.09785 | 38254 ft | 398 kts | 270° |
| 2026-05-06 08:23 | 43.03309 | -29.17292 | 38259 ft | 396 kts | 270° |
| 2026-05-06 08:23 | 43.03036 | -29.24743 | 38250 ft | 395 kts | 270° |
| 2026-05-06 08:24 | 43.02757 | -29.32209 | 38242 ft | 394 kts | 270° |
| 2026-05-06 08:24 | 43.02472 | -29.39692 | 38237 ft | 394 kts | 270° |
| 2026-05-06 08:25 | 43.02185 | -29.47127 | 38233 ft | 394 kts | 270° |
| 2026-05-06 08:25 | 43.01891 | -29.54593 | 38220 ft | 392 kts | 270° |
| 2026-05-06 08:26 | 43.01596 | -29.61974 | 38218 ft | 393 kts | 270° |
| 2026-05-06 08:26 | 43.01294 | -29.69418 | 38232 ft | 392 kts | 268° |
| 2026-05-06 08:27 | 43.00988 | -29.76811 | 38227 ft | 393 kts | 268° |
| 2026-05-06 08:27 | 43.00677 | -29.84228 | 38223 ft | 391 kts | 268° |
| 2026-05-06 08:28 | 43.00361 | -29.91660 | 38230 ft | 393 kts | 269° |
| 2026-05-06 08:28 | 43.00037 | -29.99089 | 38222 ft | 392 kts | 268° |
| 2026-05-06 08:29 | 42.99635 | -30.06485 | 38218 ft | 390 kts | 268° |
| 2026-05-06 08:29 | 42.99224 | -30.13857 | 38209 ft | 394 kts | 268° |
| 2026-05-06 08:30 | 42.98802 | -30.21290 | 38213 ft | 393 kts | 268° |
| 2026-05-06 08:30 | 42.98378 | -30.28686 | 38207 ft | 392 kts | 267° |
| 2026-05-06 08:31 | 42.97945 | -30.36139 | 38206 ft | 395 kts | 267° |
| 2026-05-06 08:31 | 42.97508 | -30.43571 | 38204 ft | 393 kts | 267° |
| 2026-05-06 08:32 | 42.97064 | -30.51041 | 38197 ft | 396 kts | 267° |
| 2026-05-06 08:32 | 42.96618 | -30.58464 | 38196 ft | 393 kts | 266° |
| 2026-05-06 08:33 | 42.96167 | -30.65888 | 38197 ft | 395 kts | 266° |
| 2026-05-06 08:33 | 42.95709 | -30.73343 | 38207 ft | 395 kts | 266° |
| 2026-05-06 08:34 | 42.95016 | -30.84477 | 38209 ft | 395 kts | 266° |
| 2026-05-06 08:35 | 42.94548 | -30.91904 | 38197 ft | 395 kts | 266° |
| 2026-05-06 08:35 | 42.94075 | -30.99321 | 38199 ft | 394 kts | 266° |
| 2026-05-06 08:36 | 42.93596 | -31.06765 | 38196 ft | 396 kts | 266° |
| 2026-05-06 08:36 | 42.93110 | -31.14243 | 38194 ft | 394 kts | 265° |
| 2026-05-06 08:37 | 42.92625 | -31.21632 | 38194 ft | 394 kts | 266° |
| 2026-05-06 08:37 | 42.92130 | -31.29094 | 38189 ft | 395 kts | 265° |
| 2026-05-06 08:38 | 42.91630 | -31.36550 | 38186 ft | 396 kts | 266° |
| 2026-05-06 08:38 | 42.91130 | -31.43944 | 38170 ft | 387 kts | 265° |
| 2026-05-06 08:39 | 42.90632 | -31.51236 | 38171 ft | 393 kts | 265° |
| 2026-05-06 08:39 | 42.90119 | -31.58683 | 38174 ft | 398 kts | 265° |
| 2026-05-06 08:40 | 42.89597 | -31.66176 | 38174 ft | 394 kts | 265° |
| 2026-05-06 08:40 | 42.89075 | -31.73598 | 38175 ft | 396 kts | 265° |
| 2026-05-06 08:41 | 42.88547 | -31.81052 | 38176 ft | 396 kts | 264° |
| 2026-05-06 08:41 | 42.88015 | -31.88470 | 38165 ft | 395 kts | 265° |
| 2026-05-06 08:42 | 42.87478 | -31.95903 | 38165 ft | 396 kts | 264° |
| 2026-05-06 08:42 | 42.86935 | -32.03358 | 38167 ft | 394 kts | 265° |
| 2026-05-06 08:43 | 42.86389 | -32.10775 | 38166 ft | 396 kts | 265° |
| 2026-05-06 08:43 | 42.85838 | -32.18199 | 38165 ft | 395 kts | 265° |
| 2026-05-06 08:44 | 42.85284 | -32.25591 | 38163 ft | 395 kts | 265° |
| 2026-05-06 08:44 | 42.84724 | -32.33011 | 38162 ft | 393 kts | 265° |
| 2026-05-06 08:45 | 42.84161 | -32.40396 | 38164 ft | 394 kts | 265° |
| 2026-05-06 08:45 | 42.83592 | -32.47798 | 38165 ft | 393 kts | 265° |
| 2026-05-06 08:46 | 42.83021 | -32.55163 | 38165 ft | 394 kts | 265° |
| 2026-05-06 08:46 | 42.82442 | -32.62567 | 38165 ft | 393 kts | 264° |
| 2026-05-06 08:47 | 42.81861 | -32.69936 | 38191 ft | 393 kts | 264° |
| 2026-05-06 08:47 | 42.81279 | -32.77263 | 38193 ft | 392 kts | 264° |
| 2026-05-06 08:48 | 42.80689 | -32.84625 | 38197 ft | 392 kts | 264° |
| 2026-05-06 08:48 | 42.80094 | -32.91988 | 38195 ft | 392 kts | 264° |
| 2026-05-06 08:49 | 42.79494 | -32.99356 | 38193 ft | 391 kts | 264° |
| 2026-05-06 08:49 | 42.78892 | -33.06678 | 38189 ft | 392 kts | 264° |
| 2026-05-06 08:50 | 42.78283 | -33.14036 | 38190 ft | 393 kts | 264° |
| 2026-05-06 08:50 | 42.77671 | -33.21376 | 38193 ft | 393 kts | 264° |
| 2026-05-06 08:51 | 42.77050 | -33.28756 | 38196 ft | 392 kts | 264° |
| 2026-05-06 08:51 | 42.76428 | -33.36105 | 38195 ft | 394 kts | 264° |
| 2026-05-06 08:52 | 42.75798 | -33.43480 | 38193 ft | 393 kts | 264° |
| 2026-05-06 08:52 | 42.75164 | -33.50841 | 38191 ft | 394 kts | 264° |
| 2026-05-06 08:53 | 42.74527 | -33.58191 | 38196 ft | 394 kts | 264° |
| 2026-05-06 08:53 | 42.73881 | -33.65586 | 38208 ft | 395 kts | 263° |
| 2026-05-06 08:54 | 42.73228 | -33.72998 | 38225 ft | 396 kts | 263° |
| 2026-05-06 08:54 | 42.72571 | -33.80410 | 38237 ft | 395 kts | 263° |
| 2026-05-06 08:55 | 42.71913 | -33.87774 | 38228 ft | 395 kts | 263° |
| 2026-05-06 08:55 | 42.71247 | -33.95179 | 38219 ft | 395 kts | 263° |
| 2026-05-06 08:56 | 42.70573 | -34.02607 | 38233 ft | 397 kts | 263° |
| 2026-05-06 08:56 | 42.69899 | -34.09989 | 38236 ft | 394 kts | 263° |
| 2026-05-06 08:57 | 42.69218 | -34.17381 | 38248 ft | 397 kts | 263° |
| 2026-05-06 08:57 | 42.68530 | -34.24815 | 38223 ft | 395 kts | 263° |
| 2026-05-06 08:58 | 42.67842 | -34.32174 | 38230 ft | 396 kts | 263° |
| 2026-05-06 08:58 | 42.67148 | -34.39556 | 38234 ft | 396 kts | 264° |
| 2026-05-06 08:59 | 42.66449 | -34.46948 | 38231 ft | 396 kts | 263° |
| 2026-05-06 08:59 | 42.65743 | -34.54347 | 38217 ft | 395 kts | 263° |
| 2026-05-06 09:00 | 42.65036 | -34.61717 | 38247 ft | 398 kts | 263° |
| 2026-05-06 09:00 | 42.64319 | -34.69130 | 38272 ft | 395 kts | 263° |
| 2026-05-06 09:01 | 42.63603 | -34.76490 | 38251 ft | 397 kts | 263° |
| 2026-05-06 09:01 | 42.62874 | -34.83928 | 38271 ft | 399 kts | 263° |
| 2026-05-06 09:02 | 42.62143 | -34.91338 | 38243 ft | 396 kts | 263° |
| 2026-05-06 09:02 | 42.61413 | -34.98686 | 38274 ft | 398 kts | 263° |
| 2026-05-06 09:03 | 42.60667 | -35.06146 | 38245 ft | 397 kts | 263° |
| 2026-05-06 09:03 | 42.60068 | -35.12108 | 38258 ft | 398 kts | 263° |
| 2026-05-06 09:04 | 42.59317 | -35.19525 | 38274 ft | 397 kts | 263° |
| 2026-05-06 09:04 | 42.58565 | -35.26907 | 38261 ft | 396 kts | 263° |
| 2026-05-06 09:05 | 42.57811 | -35.34266 | 38267 ft | 395 kts | 263° |
| 2026-05-06 09:05 | 42.57047 | -35.41660 | 38250 ft | 398 kts | 263° |
| 2026-05-06 09:06 | 42.56274 | -35.49104 | 38272 ft | 399 kts | 263° |
| 2026-05-06 09:06 | 42.55504 | -35.56472 | 38255 ft | 397 kts | 263° |
| 2026-05-06 09:07 | 42.54726 | -35.63867 | 38252 ft | 399 kts | 263° |
| 2026-05-06 09:07 | 42.53940 | -35.71291 | 38288 ft | 400 kts | 262° |
| 2026-05-06 09:08 | 42.53145 | -35.78748 | 38281 ft | 399 kts | 262° |
| 2026-05-06 09:08 | 42.52352 | -35.86142 | 38293 ft | 400 kts | 262° |
| 2026-05-06 09:09 | 42.51550 | -35.93579 | 38279 ft | 397 kts | 262° |
| 2026-05-06 09:09 | 42.50748 | -36.00969 | 38279 ft | 400 kts | 263° |
| 2026-05-06 09:10 | 42.49934 | -36.08420 | 38274 ft | 401 kts | 262° |
| 2026-05-06 09:10 | 42.49115 | -36.15868 | 38265 ft | 400 kts | 263° |
| 2026-05-06 09:11 | 42.48296 | -36.23276 | 38274 ft | 400 kts | 263° |
| 2026-05-06 09:11 | 42.47602 | -36.29512 | 38265 ft | 402 kts | 263° |
| 2026-05-06 09:12 | 42.46761 | -36.37031 | 38292 ft | 403 kts | 263° |
| 2026-05-06 09:12 | 42.45923 | -36.44481 | 38278 ft | 404 kts | 263° |
| 2026-05-06 09:13 | 42.45072 | -36.52002 | 38279 ft | 405 kts | 263° |
| 2026-05-06 09:13 | 42.44215 | -36.59523 | 38285 ft | 403 kts | 263° |
| 2026-05-06 09:14 | 42.43358 | -36.67001 | 38295 ft | 404 kts | 262° |
| 2026-05-06 09:14 | 42.42496 | -36.74481 | 38312 ft | 406 kts | 262° |
| 2026-05-06 09:15 | 42.41626 | -36.81982 | 38289 ft | 403 kts | 263° |
| 2026-05-06 09:15 | 42.40751 | -36.89489 | 38285 ft | 406 kts | 262° |
| 2026-05-06 09:16 | 42.39869 | -36.97009 | 38291 ft | 408 kts | 263° |
| 2026-05-06 09:16 | 42.38979 | -37.04555 | 38296 ft | 405 kts | 262° |
| 2026-05-06 09:17 | 42.38086 | -37.12074 | 38287 ft | 407 kts | 263° |
| 2026-05-06 09:17 | 42.37188 | -37.19603 | 38299 ft | 408 kts | 262° |
| 2026-05-06 09:18 | 42.36281 | -37.27150 | 38308 ft | 408 kts | 263° |
| 2026-05-06 09:18 | 42.35374 | -37.34669 | 38329 ft | 408 kts | 263° |
| 2026-05-06 09:19 | 42.34457 | -37.42211 | 38300 ft | 407 kts | 263° |
| 2026-05-06 09:19 | 42.33538 | -37.49737 | 38329 ft | 409 kts | 263° |
| 2026-05-06 09:20 | 42.32610 | -37.57294 | 38298 ft | 406 kts | 263° |
| 2026-05-06 09:20 | 42.31685 | -37.64790 | 38301 ft | 409 kts | 263° |
| 2026-05-06 09:21 | 42.30738 | -37.72411 | 38354 ft | 410 kts | 262° |
| 2026-05-06 09:21 | 42.29792 | -37.79980 | 38366 ft | 409 kts | 263° |
| 2026-05-06 09:22 | 42.28845 | -37.87529 | 38342 ft | 409 kts | 262° |
| 2026-05-06 09:22 | 42.27890 | -37.95088 | 38350 ft | 412 kts | 262° |
| 2026-05-06 09:23 | 42.26923 | -38.02697 | 38344 ft | 409 kts | 263° |
| 2026-05-06 09:23 | 42.25963 | -38.10215 | 38352 ft | 408 kts | 263° |
| 2026-05-06 09:24 | 42.24997 | -38.17742 | 38346 ft | 408 kts | 263° |
| 2026-05-06 09:24 | 42.24027 | -38.25257 | 38331 ft | 406 kts | 263° |
| 2026-05-06 09:25 | 42.23055 | -38.32750 | 38351 ft | 410 kts | 263° |
| 2026-05-06 09:25 | 42.22078 | -38.40236 | 38325 ft | 405 kts | 263° |
| 2026-05-06 09:26 | 42.21097 | -38.47722 | 38342 ft | 409 kts | 263° |
| 2026-05-06 09:26 | 42.20103 | -38.55261 | 38334 ft | 406 kts | 263° |
| 2026-05-06 09:27 | 42.19110 | -38.62752 | 38331 ft | 407 kts | 263° |
| 2026-05-06 09:27 | 42.18109 | -38.70264 | 38345 ft | 408 kts | 263° |
| 2026-05-06 09:28 | 42.17108 | -38.77740 | 38329 ft | 406 kts | 263° |
| 2026-05-06 09:28 | 42.16102 | -38.85216 | 38346 ft | 407 kts | 263° |
| 2026-05-06 09:29 | 42.15091 | -38.92688 | 38357 ft | 411 kts | 263° |
| 2026-05-06 09:29 | 42.14063 | -39.00248 | 38363 ft | 410 kts | 263° |
| 2026-05-06 09:30 | 42.13038 | -39.07744 | 38369 ft | 409 kts | 263° |
| 2026-05-06 09:30 | 42.12009 | -39.15237 | 38368 ft | 407 kts | 263° |
| 2026-05-06 09:31 | 42.10974 | -39.22732 | 38362 ft | 408 kts | 263° |
| 2026-05-06 09:31 | 42.09936 | -39.30205 | 38368 ft | 406 kts | 263° |
| 2026-05-06 09:32 | 42.08897 | -39.37660 | 38373 ft | 407 kts | 263° |
| 2026-05-06 09:32 | 42.07854 | -39.45094 | 38372 ft | 403 kts | 264° |
| 2026-05-06 09:33 | 42.06810 | -39.52511 | 38372 ft | 404 kts | 263° |
| 2026-05-06 09:33 | 42.05761 | -39.59925 | 38369 ft | 404 kts | 263° |
| 2026-05-06 09:34 | 42.04708 | -39.67332 | 38377 ft | 405 kts | 263° |
| 2026-05-06 09:34 | 42.03652 | -39.74714 | 38397 ft | 403 kts | 263° |
| 2026-05-06 09:35 | 42.02593 | -39.82087 | 38386 ft | 400 kts | 264° |
| 2026-05-06 09:35 | 42.01539 | -39.89397 | 38392 ft | 402 kts | 264° |
| 2026-05-06 09:36 | 42.00474 | -39.96742 | 38389 ft | 403 kts | 263° |
| 2026-05-06 09:36 | 41.99363 | -40.04184 | 38387 ft | 401 kts | 263° |
| 2026-05-06 09:37 | 41.98254 | -40.11476 | 38391 ft | 402 kts | 263° |
| 2026-05-06 09:37 | 41.97136 | -40.18798 | 38393 ft | 402 kts | 264° |
| 2026-05-06 09:38 | 41.96006 | -40.26152 | 38405 ft | 400 kts | 263° |
| 2026-05-06 09:38 | 41.94885 | -40.33421 | 38394 ft | 400 kts | 263° |
| 2026-05-06 09:39 | 41.93748 | -40.40761 | 38408 ft | 402 kts | 264° |
| 2026-05-06 09:39 | 41.92609 | -40.48073 | 38399 ft | 400 kts | 263° |
| 2026-05-06 09:40 | 41.91479 | -40.55298 | 38402 ft | 398 kts | 263° |
| 2026-05-06 09:40 | 41.89763 | -40.66221 | 38404 ft | 399 kts | 263° |
| 2026-05-06 09:41 | 41.88614 | -40.73490 | 38405 ft | 399 kts | 263° |
| 2026-05-06 09:41 | 41.87455 | -40.80793 | 38401 ft | 399 kts | 263° |
| 2026-05-06 09:42 | 41.86306 | -40.88000 | 38410 ft | 401 kts | 263° |
| 2026-05-06 09:42 | 41.85133 | -40.95322 | 38412 ft | 398 kts | 263° |
| 2026-05-06 09:43 | 41.83979 | -41.02500 | 38401 ft | 396 kts | 263° |
| 2026-05-06 09:43 | 41.82816 | -41.09705 | 38410 ft | 397 kts | 263° |
| 2026-05-06 09:44 | 41.81653 | -41.16871 | 38397 ft | 394 kts | 263° |
| 2026-05-06 09:44 | 41.80491 | -41.24010 | 38408 ft | 395 kts | 263° |
| 2026-05-06 09:45 | 41.79312 | -41.31223 | 38403 ft | 396 kts | 263° |
| 2026-05-06 09:45 | 41.78148 | -41.38304 | 38405 ft | 391 kts | 263° |
| 2026-05-06 09:46 | 41.76969 | -41.45462 | 38402 ft | 396 kts | 264° |
| 2026-05-06 09:46 | 41.75781 | -41.52632 | 38395 ft | 392 kts | 263° |
| 2026-05-06 09:47 | 41.74594 | -41.59771 | 38406 ft | 394 kts | 263° |
| 2026-05-06 09:47 | 41.73411 | -41.66857 | 38424 ft | 391 kts | 263° |
| 2026-05-06 09:48 | 41.72217 | -41.73986 | 38433 ft | 394 kts | 263° |
| 2026-05-06 09:48 | 41.71028 | -41.81045 | 38432 ft | 391 kts | 263° |
| 2026-05-06 09:49 | 41.69825 | -41.88172 | 38434 ft | 393 kts | 263° |
| 2026-05-06 09:49 | 41.68632 | -41.95198 | 38421 ft | 389 kts | 263° |
| 2026-05-06 09:50 | 41.67430 | -42.02263 | 38435 ft | 390 kts | 263° |
| 2026-05-06 09:50 | 41.66226 | -42.09299 | 38428 ft | 388 kts | 263° |
| 2026-05-06 09:51 | 41.65026 | -42.16293 | 38431 ft | 387 kts | 263° |
| 2026-05-06 09:51 | 41.63815 | -42.23321 | 38430 ft | 390 kts | 263° |
| 2026-05-06 09:52 | 41.62606 | -42.30309 | 38422 ft | 388 kts | 262° |
| 2026-05-06 09:52 | 41.61395 | -42.37277 | 38429 ft | 385 kts | 262° |
| 2026-05-06 09:53 | 41.60184 | -42.44223 | 38425 ft | 385 kts | 263° |
| 2026-05-06 09:53 | 41.58972 | -42.51153 | 38426 ft | 384 kts | 262° |
| 2026-05-06 09:54 | 41.57748 | -42.58122 | 38418 ft | 386 kts | 263° |
| 2026-05-06 09:54 | 41.56533 | -42.65009 | 38418 ft | 383 kts | 262° |
| 2026-05-06 09:55 | 41.55308 | -42.71934 | 38440 ft | 385 kts | 262° |
| 2026-05-06 09:55 | 41.54081 | -42.78833 | 38441 ft | 382 kts | 262° |
| 2026-05-06 09:56 | 41.52853 | -42.85724 | 38454 ft | 382 kts | 262° |
| 2026-05-06 09:56 | 41.51618 | -42.92621 | 38454 ft | 383 kts | 262° |
| 2026-05-06 09:57 | 41.50382 | -42.99502 | 38435 ft | 382 kts | 262° |
| 2026-05-06 09:57 | 41.49149 | -43.06342 | 38440 ft | 382 kts | 262° |
| 2026-05-06 09:58 | 41.47913 | -43.13168 | 38444 ft | 380 kts | 262° |
| 2026-05-06 09:58 | 41.46666 | -43.20037 | 38500 ft | 383 kts | 262° |
| 2026-05-06 09:59 | 41.45420 | -43.26866 | 38444 ft | 379 kts | 261° |
| 2026-05-06 09:59 | 41.44178 | -43.33653 | 38457 ft | 379 kts | 262° |
| 2026-05-06 10:00 | 41.42931 | -43.40448 | 38445 ft | 379 kts | 262° |
| 2026-05-06 10:00 | 41.41677 | -43.47251 | 38446 ft | 379 kts | 262° |
| 2026-05-06 10:01 | 41.40420 | -43.54045 | 38438 ft | 379 kts | 262° |
| 2026-05-06 10:01 | 41.39150 | -43.60887 | 38427 ft | 379 kts | 262° |
| 2026-05-06 10:02 | 41.37927 | -43.67454 | 38463 ft | 380 kts | 261° |
| 2026-05-06 10:02 | 41.36645 | -43.74310 | 38457 ft | 378 kts | 261° |
| 2026-05-06 10:03 | 41.35373 | -43.81095 | 38463 ft | 380 kts | 261° |
| 2026-05-06 10:03 | 41.34094 | -43.87888 | 38459 ft | 378 kts | 261° |
| 2026-05-06 10:04 | 41.32821 | -43.94625 | 38460 ft | 376 kts | 261° |
| 2026-05-06 10:04 | 41.31544 | -44.01365 | 38467 ft | 380 kts | 261° |
| 2026-05-06 10:05 | 41.30259 | -44.08116 | 38465 ft | 378 kts | 261° |
| 2026-05-06 10:05 | 41.28968 | -44.14881 | 38464 ft | 376 kts | 261° |
| 2026-05-06 10:06 | 41.27683 | -44.21592 | 38460 ft | 376 kts | 261° |
| 2026-05-06 10:06 | 41.26389 | -44.28327 | 38463 ft | 379 kts | 261° |
| 2026-05-06 10:07 | 41.25085 | -44.35082 | 38457 ft | 376 kts | 261° |
| 2026-05-06 10:07 | 41.23784 | -44.41807 | 38447 ft | 376 kts | 261° |
| 2026-05-06 10:08 | 41.22480 | -44.48519 | 38447 ft | 375 kts | 261° |
| 2026-05-06 10:08 | 41.21178 | -44.55202 | 38446 ft | 375 kts | 261° |
| 2026-05-06 10:09 | 41.19871 | -44.61891 | 38439 ft | 376 kts | 261° |
| 2026-05-06 10:09 | 41.18554 | -44.68605 | 38466 ft | 376 kts | 260° |
| 2026-05-06 10:10 | 41.17229 | -44.75335 | 38457 ft | 376 kts | 260° |
| 2026-05-06 10:10 | 41.15913 | -44.82000 | 38466 ft | 376 kts | 260° |
| 2026-05-06 10:11 | 41.14582 | -44.88718 | 38465 ft | 377 kts | 260° |
| 2026-05-06 10:11 | 41.13261 | -44.95361 | 38470 ft | 375 kts | 260° |
| 2026-05-06 10:12 | 41.11933 | -45.02020 | 38469 ft | 374 kts | 260° |
| 2026-05-06 10:12 | 41.10595 | -45.08711 | 38466 ft | 377 kts | 259° |
| 2026-05-06 10:13 | 41.09262 | -45.15347 | 38470 ft | 374 kts | 260° |
| 2026-05-06 10:13 | 41.07924 | -45.21993 | 38467 ft | 375 kts | 260° |
| 2026-05-06 10:14 | 41.06570 | -45.28693 | 38463 ft | 375 kts | 260° |
| 2026-05-06 10:14 | 41.05229 | -45.35308 | 38463 ft | 374 kts | 260° |
| 2026-05-06 10:15 | 41.03879 | -45.41948 | 38455 ft | 375 kts | 260° |
| 2026-05-06 10:15 | 41.02515 | -45.48629 | 38456 ft | 374 kts | 259° |
| 2026-05-06 10:16 | 41.01157 | -45.55264 | 38458 ft | 376 kts | 259° |
| 2026-05-06 10:16 | 40.99797 | -45.61886 | 38456 ft | 376 kts | 259° |
| 2026-05-06 10:17 | 40.98421 | -45.68562 | 38479 ft | 376 kts | 259° |
| 2026-05-06 10:17 | 40.97057 | -45.75166 | 38479 ft | 375 kts | 259° |
| 2026-05-06 10:18 | 40.95674 | -45.81834 | 38476 ft | 375 kts | 259° |
| 2026-05-06 10:18 | 40.94292 | -45.88477 | 38474 ft | 375 kts | 259° |
| 2026-05-06 10:19 | 40.92915 | -45.95078 | 38470 ft | 377 kts | 258° |
| 2026-05-06 10:19 | 40.91524 | -46.01719 | 38466 ft | 375 kts | 259° |
| 2026-05-06 10:20 | 40.90136 | -46.08330 | 38469 ft | 374 kts | 258° |
| 2026-05-06 10:20 | 40.88738 | -46.14973 | 38473 ft | 376 kts | 258° |
| 2026-05-06 10:21 | 40.87334 | -46.21615 | 38479 ft | 377 kts | 259° |
| 2026-05-06 10:21 | 40.85931 | -46.28231 | 38480 ft | 375 kts | 258° |
| 2026-05-06 10:22 | 40.84523 | -46.34855 | 38476 ft | 378 kts | 259° |
| 2026-05-06 10:22 | 40.83113 | -46.41467 | 38466 ft | 377 kts | 258° |
| 2026-05-06 10:23 | 40.81690 | -46.48117 | 38471 ft | 376 kts | 258° |
| 2026-05-06 10:23 | 40.80273 | -46.54719 | 38463 ft | 377 kts | 259° |
| 2026-05-06 10:24 | 40.78840 | -46.61380 | 38457 ft | 377 kts | 258° |
| 2026-05-06 10:24 | 40.77409 | -46.68002 | 38478 ft | 376 kts | 258° |
| 2026-05-06 10:25 | 40.75977 | -46.74613 | 38474 ft | 376 kts | 258° |
| 2026-05-06 10:25 | 40.74540 | -46.81223 | 38473 ft | 375 kts | 258° |
| 2026-05-06 10:26 | 40.73109 | -46.87791 | 38472 ft | 376 kts | 257° |
| 2026-05-06 10:26 | 40.71666 | -46.94391 | 38470 ft | 376 kts | 258° |
| 2026-05-06 10:27 | 40.70216 | -47.01003 | 38468 ft | 376 kts | 257° |
| 2026-05-06 10:27 | 40.68771 | -47.07577 | 38466 ft | 376 kts | 258° |
| 2026-05-06 10:28 | 40.67313 | -47.14185 | 38464 ft | 376 kts | 257° |
| 2026-05-06 10:28 | 40.65860 | -47.20755 | 38462 ft | 378 kts | 258° |
| 2026-05-06 10:29 | 40.64387 | -47.27389 | 38461 ft | 375 kts | 258° |
| 2026-05-06 10:29 | 40.62926 | -47.33950 | 38460 ft | 376 kts | 257° |
| 2026-05-06 10:30 | 40.61453 | -47.40552 | 38457 ft | 377 kts | 258° |
| 2026-05-06 10:30 | 40.59974 | -47.47153 | 38455 ft | 375 kts | 257° |
| 2026-05-06 10:31 | 40.58503 | -47.53702 | 38456 ft | 377 kts | 257° |
| 2026-05-06 10:31 | 40.57024 | -47.60271 | 38451 ft | 376 kts | 258° |
| 2026-05-06 10:32 | 40.55546 | -47.66811 | 38478 ft | 374 kts | 257° |
| 2026-05-06 10:32 | 40.54058 | -47.73381 | 38474 ft | 378 kts | 257° |
| 2026-05-06 10:33 | 40.52567 | -47.79935 | 38475 ft | 374 kts | 257° |
| 2026-05-06 10:33 | 40.51062 | -47.86541 | 38474 ft | 378 kts | 257° |
| 2026-05-06 10:34 | 40.49565 | -47.93088 | 38479 ft | 375 kts | 256° |
| 2026-05-06 10:34 | 40.48061 | -47.99651 | 38477 ft | 377 kts | 257° |
| 2026-05-06 10:35 | 40.46546 | -48.06239 | 38471 ft | 376 kts | 257° |
| 2026-05-06 10:35 | 40.45035 | -48.12792 | 38466 ft | 377 kts | 257° |
| 2026-05-06 10:36 | 40.43521 | -48.19336 | 38461 ft | 374 kts | 257° |
| 2026-05-06 10:36 | 40.42002 | -48.25888 | 38459 ft | 376 kts | 257° |
| 2026-05-06 10:37 | 40.40483 | -48.32418 | 38459 ft | 375 kts | 257° |
| 2026-05-06 10:37 | 40.38959 | -48.38947 | 38460 ft | 374 kts | 257° |
| 2026-05-06 10:38 | 40.37420 | -48.45531 | 38455 ft | 376 kts | 256° |
| 2026-05-06 10:38 | 40.35896 | -48.52024 | 38449 ft | 374 kts | 257° |
| 2026-05-06 10:39 | 40.34360 | -48.58553 | 38446 ft | 376 kts | 257° |
| 2026-05-06 10:39 | 40.32816 | -48.65097 | 38443 ft | 373 kts | 256° |
| 2026-05-06 10:40 | 40.31287 | -48.71559 | 38463 ft | 376 kts | 256° |
| 2026-05-06 10:40 | 40.29729 | -48.78121 | 38460 ft | 375 kts | 256° |
| 2026-05-06 10:41 | 40.28185 | -48.84614 | 38457 ft | 376 kts | 255° |
| 2026-05-06 10:41 | 40.26643 | -48.91074 | 38455 ft | 373 kts | 256° |
| 2026-05-06 10:42 | 40.25087 | -48.97577 | 38453 ft | 375 kts | 255° |
| 2026-05-06 10:42 | 40.23532 | -49.04057 | 38451 ft | 377 kts | 256° |
| 2026-05-06 10:43 | 40.21953 | -49.10616 | 38450 ft | 376 kts | 256° |
| 2026-05-06 10:44 | 40.19609 | -49.20321 | 38444 ft | 374 kts | 255° |
| 2026-05-06 10:44 | 40.18039 | -49.26803 | 38442 ft | 376 kts | 255° |
| 2026-05-06 10:45 | 40.16466 | -49.33277 | 38445 ft | 374 kts | 255° |
| 2026-05-06 10:45 | 40.14884 | -49.39770 | 38439 ft | 376 kts | 255° |
| 2026-05-06 10:46 | 40.13299 | -49.46256 | 38438 ft | 375 kts | 255° |
| 2026-05-06 10:46 | 40.11704 | -49.52768 | 38442 ft | 375 kts | 255° |
| 2026-05-06 10:47 | 40.10110 | -49.59253 | 38440 ft | 374 kts | 255° |
| 2026-05-06 10:47 | 40.08527 | -49.65683 | 38446 ft | 376 kts | 255° |
| 2026-05-06 10:48 | 40.06919 | -49.72190 | 38460 ft | 374 kts | 255° |
| 2026-05-06 10:48 | 40.05321 | -49.78642 | 38463 ft | 375 kts | 254° |
| 2026-05-06 10:49 | 40.03721 | -49.85086 | 38466 ft | 375 kts | 254° |
| 2026-05-06 10:49 | 40.02120 | -49.91511 | 38457 ft | 373 kts | 255° |
| 2026-05-06 10:50 | 40.00471 | -49.97944 | 38442 ft | 377 kts | 250° |
| 2026-05-06 10:50 | 39.97814 | -50.03955 | 38697 ft | 385 kts | 242° |
| 2026-05-06 10:50 | 39.96380 | -50.06837 | 39242 ft | 382 kts | 242° |
| 2026-05-06 10:51 | 39.94948 | -50.09684 | 39912 ft | 375 kts | 242° |
| 2026-05-06 10:51 | 39.93512 | -50.12518 | 40400 ft | 371 kts | 243° |
| 2026-05-06 10:51 | 39.92084 | -50.15328 | 40431 ft | 375 kts | 242° |
| 2026-05-06 10:52 | 39.89177 | -50.21001 | 40443 ft | 382 kts | 242° |
| 2026-05-06 10:52 | 39.86221 | -50.26728 | 40437 ft | 379 kts | 242° |
| 2026-05-06 10:53 | 39.83276 | -50.32420 | 40435 ft | 381 kts | 242° |
| 2026-05-06 10:53 | 39.80323 | -50.38114 | 40437 ft | 382 kts | 241° |
| 2026-05-06 10:54 | 39.77356 | -50.43822 | 40431 ft | 381 kts | 241° |
| 2026-05-06 10:54 | 39.74403 | -50.49491 | 40429 ft | 380 kts | 242° |
| 2026-05-06 10:55 | 39.71426 | -50.55201 | 40427 ft | 382 kts | 242° |
| 2026-05-06 10:55 | 39.68456 | -50.60880 | 40420 ft | 381 kts | 242° |
| 2026-05-06 10:56 | 39.65482 | -50.66562 | 40446 ft | 381 kts | 241° |
| 2026-05-06 10:56 | 39.62498 | -50.72250 | 40443 ft | 382 kts | 240° |
| 2026-05-06 10:57 | 39.59510 | -50.77938 | 40439 ft | 383 kts | 241° |
| 2026-05-06 10:57 | 39.56522 | -50.83614 | 40427 ft | 381 kts | 240° |
| 2026-05-06 10:58 | 39.53548 | -50.89251 | 40425 ft | 379 kts | 241° |
| 2026-05-06 10:58 | 39.50559 | -50.94913 | 40419 ft | 384 kts | 240° |
| 2026-05-06 10:59 | 39.47570 | -51.00557 | 40416 ft | 380 kts | 240° |
| 2026-05-06 10:59 | 39.44592 | -51.06175 | 40415 ft | 382 kts | 241° |
| 2026-05-06 11:00 | 39.41607 | -51.11795 | 40413 ft | 379 kts | 240° |
| 2026-05-06 11:00 | 39.38603 | -51.17442 | 40419 ft | 383 kts | 240° |
| 2026-05-06 11:01 | 39.35588 | -51.23099 | 40416 ft | 382 kts | 241° |
| 2026-05-06 11:01 | 39.32575 | -51.28742 | 40411 ft | 384 kts | 241° |
| 2026-05-06 11:02 | 39.29553 | -51.34393 | 40405 ft | 385 kts | 240° |
| 2026-05-06 11:02 | 39.26517 | -51.40058 | 40407 ft | 382 kts | 240° |
| 2026-05-06 11:03 | 39.24498 | -51.43821 | 40403 ft | 383 kts | 240° |
| 2026-05-06 11:03 | 39.20242 | -51.51738 | 40402 ft | 384 kts | 240° |
| 2026-05-06 11:04 | 39.17205 | -51.57376 | 40398 ft | 384 kts | 240° |
| 2026-05-06 11:04 | 39.14156 | -51.63024 | 40392 ft | 382 kts | 240° |
| 2026-05-06 11:05 | 39.11111 | -51.68658 | 40415 ft | 387 kts | 240° |
| 2026-05-06 11:05 | 39.08039 | -51.74328 | 40413 ft | 384 kts | 240° |
| 2026-05-06 11:06 | 39.05000 | -51.79930 | 40410 ft | 386 kts | 239° |
| 2026-05-06 11:06 | 39.01913 | -51.85612 | 40410 ft | 387 kts | 240° |
| 2026-05-06 11:07 | 38.98840 | -51.91254 | 40407 ft | 387 kts | 239° |
| 2026-05-06 11:07 | 38.95753 | -51.96915 | 40400 ft | 388 kts | 239° |
| 2026-05-06 11:08 | 38.92667 | -52.02562 | 40399 ft | 383 kts | 239° |
| 2026-05-06 11:08 | 38.89582 | -52.08201 | 40398 ft | 389 kts | 239° |
| 2026-05-06 11:09 | 38.86480 | -52.13856 | 40399 ft | 385 kts | 239° |
| 2026-05-06 11:09 | 38.83424 | -52.19421 | 40396 ft | 384 kts | 239° |
| 2026-05-06 11:10 | 38.80323 | -52.25059 | 40388 ft | 388 kts | 239° |
| 2026-05-06 11:10 | 38.77230 | -52.30671 | 40392 ft | 385 kts | 239° |
| 2026-05-06 11:11 | 38.74147 | -52.36255 | 40389 ft | 387 kts | 239° |
| 2026-05-06 11:11 | 38.71038 | -52.41877 | 40389 ft | 388 kts | 239° |
| 2026-05-06 11:12 | 38.67932 | -52.47481 | 40390 ft | 383 kts | 238° |
| 2026-05-06 11:12 | 38.64866 | -52.53007 | 40383 ft | 387 kts | 239° |
| 2026-05-06 11:13 | 38.61752 | -52.58609 | 40367 ft | 385 kts | 238° |
| 2026-05-06 11:13 | 38.58643 | -52.64191 | 40364 ft | 385 kts | 238° |
| 2026-05-06 11:14 | 38.55546 | -52.69745 | 40379 ft | 387 kts | 238° |
| 2026-05-06 11:14 | 38.52438 | -52.75307 | 40381 ft | 386 kts | 238° |
| 2026-05-06 11:15 | 38.49328 | -52.80863 | 40377 ft | 383 kts | 237° |
| 2026-05-06 11:15 | 38.46219 | -52.86408 | 40381 ft | 386 kts | 237° |
| 2026-05-06 11:16 | 38.43096 | -52.91969 | 40378 ft | 386 kts | 237° |
| 2026-05-06 11:16 | 38.39989 | -52.97491 | 40376 ft | 386 kts | 237° |
| 2026-05-06 11:17 | 38.36871 | -53.03023 | 40369 ft | 385 kts | 237° |
| 2026-05-06 11:17 | 38.33743 | -53.08564 | 40370 ft | 385 kts | 237° |
| 2026-05-06 11:18 | 38.30626 | -53.14076 | 40367 ft | 385 kts | 237° |
| 2026-05-06 11:18 | 38.27501 | -53.19593 | 40361 ft | 382 kts | 237° |
| 2026-05-06 11:19 | 38.24388 | -53.25080 | 40357 ft | 384 kts | 236° |
| 2026-05-06 11:19 | 38.21274 | -53.30559 | 40361 ft | 384 kts | 237° |
| 2026-05-06 11:20 | 38.18162 | -53.36026 | 40375 ft | 383 kts | 237° |
| 2026-05-06 11:20 | 38.15041 | -53.41500 | 40363 ft | 384 kts | 236° |
| 2026-05-06 11:21 | 38.11912 | -53.46976 | 40346 ft | 382 kts | 236° |
| 2026-05-06 11:21 | 38.08800 | -53.52416 | 40337 ft | 382 kts | 236° |
| 2026-05-06 11:22 | 38.05682 | -53.57858 | 40339 ft | 383 kts | 236° |
| 2026-05-06 11:22 | 38.02553 | -53.63308 | 40329 ft | 382 kts | 237° |
| 2026-05-06 11:23 | 37.99443 | -53.68715 | 40356 ft | 381 kts | 236° |
| 2026-05-06 11:23 | 37.96309 | -53.74159 | 40349 ft | 383 kts | 236° |
| 2026-05-06 11:24 | 37.93179 | -53.79584 | 40344 ft | 381 kts | 236° |
| 2026-05-06 11:24 | 37.90074 | -53.84958 | 40352 ft | 379 kts | 235° |
| 2026-05-06 11:25 | 37.86948 | -53.90360 | 40369 ft | 384 kts | 236° |
| 2026-05-06 11:25 | 37.83808 | -53.95775 | 40358 ft | 382 kts | 236° |
| 2026-05-06 11:26 | 37.80673 | -54.01174 | 40358 ft | 382 kts | 235° |
| 2026-05-06 11:26 | 37.77533 | -54.06573 | 40354 ft | 382 kts | 235° |
| 2026-05-06 11:27 | 37.74383 | -54.11979 | 40350 ft | 380 kts | 235° |
| 2026-05-06 11:27 | 37.71249 | -54.17351 | 40354 ft | 382 kts | 235° |
| 2026-05-06 11:28 | 37.68100 | -54.22739 | 40347 ft | 382 kts | 235° |
| 2026-05-06 11:28 | 37.64926 | -54.28160 | 40343 ft | 384 kts | 235° |
| 2026-05-06 11:29 | 37.61767 | -54.33547 | 40336 ft | 382 kts | 235° |
| 2026-05-06 11:29 | 37.58606 | -54.38929 | 40322 ft | 383 kts | 236° |
| 2026-05-06 11:30 | 37.55453 | -54.44288 | 40329 ft | 382 kts | 234° |
| 2026-05-06 11:30 | 37.52282 | -54.49670 | 40332 ft | 384 kts | 234° |
| 2026-05-06 11:31 | 37.49100 | -54.55062 | 40318 ft | 383 kts | 235° |
| 2026-05-06 11:31 | 37.45931 | -54.60421 | 40317 ft | 382 kts | 235° |
| 2026-05-06 11:32 | 37.42743 | -54.65806 | 40309 ft | 382 kts | 234° |
| 2026-05-06 11:32 | 37.39577 | -54.71144 | 40332 ft | 382 kts | 234° |
| 2026-05-06 11:33 | 37.36410 | -54.76476 | 40316 ft | 383 kts | 234° |
| 2026-05-06 11:33 | 37.33220 | -54.81836 | 40311 ft | 382 kts | 234° |
| 2026-05-06 11:34 | 37.30061 | -54.87139 | 40321 ft | 381 kts | 234° |
| 2026-05-06 11:34 | 37.26875 | -54.92475 | 40307 ft | 384 kts | 234° |
| 2026-05-06 11:35 | 37.23691 | -54.97802 | 40314 ft | 382 kts | 234° |
| 2026-05-06 11:35 | 37.20495 | -55.03140 | 40307 ft | 384 kts | 234° |
| 2026-05-06 11:36 | 37.17294 | -55.08477 | 40302 ft | 383 kts | 233° |
| 2026-05-06 11:36 | 37.14108 | -55.13780 | 40297 ft | 382 kts | 234° |
| 2026-05-06 11:37 | 37.10903 | -55.19107 | 40302 ft | 382 kts | 234° |
| 2026-05-06 11:37 | 37.07715 | -55.24398 | 40285 ft | 384 kts | 233° |
| 2026-05-06 11:38 | 37.04486 | -55.29748 | 40284 ft | 384 kts | 233° |
| 2026-05-06 11:38 | 37.01276 | -55.35058 | 40285 ft | 386 kts | 233° |
| 2026-05-06 11:39 | 36.98046 | -55.40391 | 40285 ft | 384 kts | 233° |
| 2026-05-06 11:39 | 36.94830 | -55.45695 | 40274 ft | 385 kts | 233° |
| 2026-05-06 11:40 | 36.91601 | -55.51011 | 40267 ft | 384 kts | 233° |
| 2026-05-06 11:40 | 36.88379 | -55.56308 | 40285 ft | 384 kts | 233° |
| 2026-05-06 11:41 | 36.85154 | -55.61601 | 40277 ft | 388 kts | 233° |
| 2026-05-06 11:41 | 36.81874 | -55.66975 | 40292 ft | 384 kts | 232° |
| 2026-05-06 11:42 | 36.78655 | -55.72241 | 40291 ft | 385 kts | 232° |
| 2026-05-06 11:42 | 36.75391 | -55.77571 | 40287 ft | 387 kts | 233° |
| 2026-05-06 11:43 | 36.72160 | -55.82842 | 40283 ft | 383 kts | 232° |
| 2026-05-06 11:43 | 36.68912 | -55.88130 | 40280 ft | 387 kts | 232° |
| 2026-05-06 11:44 | 36.64008 | -55.96100 | 40285 ft | 386 kts | 233° |
| 2026-05-06 11:44 | 36.60722 | -56.01430 | 40275 ft | 388 kts | 232° |
| 2026-05-06 11:45 | 36.57453 | -56.06724 | 40266 ft | 388 kts | 232° |
| 2026-05-06 11:45 | 36.54164 | -56.12042 | 40256 ft | 390 kts | 232° |
| 2026-05-06 11:46 | 36.50877 | -56.17348 | 40256 ft | 389 kts | 231° |
| 2026-05-06 11:46 | 36.47539 | -56.22728 | 40255 ft | 393 kts | 231° |
| 2026-05-06 11:47 | 36.44230 | -56.28053 | 40253 ft | 390 kts | 231° |
| 2026-05-06 11:47 | 36.40933 | -56.33351 | 40253 ft | 392 kts | 231° |
| 2026-05-06 11:48 | 36.37603 | -56.38693 | 40228 ft | 390 kts | 231° |
| 2026-05-06 11:48 | 36.34291 | -56.43998 | 40239 ft | 390 kts | 231° |
| 2026-05-06 11:49 | 36.30946 | -56.49346 | 40235 ft | 393 kts | 231° |
| 2026-05-06 11:49 | 36.27621 | -56.54655 | 40232 ft | 392 kts | 231° |
| 2026-05-06 11:50 | 36.24274 | -56.59992 | 40221 ft | 394 kts | 231° |
| 2026-05-06 11:50 | 36.20915 | -56.65338 | 40218 ft | 393 kts | 230° |
| 2026-05-06 11:51 | 36.17562 | -56.70666 | 40234 ft | 395 kts | 230° |
| 2026-05-06 11:51 | 36.14202 | -56.75998 | 40228 ft | 396 kts | 230° |
| 2026-05-06 11:52 | 36.10795 | -56.81396 | 40229 ft | 397 kts | 229° |
| 2026-05-06 11:52 | 36.07403 | -56.86762 | 40206 ft | 395 kts | 229° |
| 2026-05-06 11:53 | 36.04006 | -56.92126 | 40228 ft | 399 kts | 229° |
| 2026-05-06 11:53 | 36.00571 | -56.97543 | 40234 ft | 398 kts | 229° |
| 2026-05-06 11:54 | 35.97158 | -57.02916 | 40235 ft | 399 kts | 229° |
| 2026-05-06 11:54 | 35.93728 | -57.08307 | 40212 ft | 400 kts | 229° |
| 2026-05-06 11:55 | 35.90309 | -57.13673 | 40221 ft | 397 kts | 229° |
| 2026-05-06 11:55 | 35.86905 | -57.19007 | 40243 ft | 398 kts | 229° |
| 2026-05-06 11:56 | 35.83477 | -57.24370 | 40226 ft | 399 kts | 229° |
| 2026-05-06 11:56 | 35.80034 | -57.29749 | 40217 ft | 399 kts | 229° |
| 2026-05-06 11:57 | 35.76613 | -57.35085 | 40215 ft | 398 kts | 229° |
| 2026-05-06 11:57 | 35.73169 | -57.40447 | 40215 ft | 401 kts | 229° |
| 2026-05-06 11:58 | 35.69736 | -57.45786 | 40211 ft | 396 kts | 229° |
| 2026-05-06 11:58 | 35.66289 | -57.51134 | 40213 ft | 401 kts | 229° |
| 2026-05-06 11:59 | 35.62828 | -57.56501 | 40199 ft | 397 kts | 229° |
| 2026-05-06 11:59 | 35.59375 | -57.61844 | 40193 ft | 399 kts | 229° |
| 2026-05-06 12:00 | 35.55943 | -57.67147 | 40219 ft | 400 kts | 227° |
| 2026-05-06 12:00 | 35.52477 | -57.72495 | 40192 ft | 398 kts | 228° |
| 2026-05-06 12:01 | 35.49030 | -57.77805 | 40194 ft | 401 kts | 228° |
| 2026-05-06 12:01 | 35.45536 | -57.83178 | 40182 ft | 401 kts | 228° |
| 2026-05-06 12:02 | 35.42091 | -57.88471 | 40175 ft | 396 kts | 228° |
| 2026-05-06 12:02 | 35.38640 | -57.93761 | 40168 ft | 402 kts | 227° |
| 2026-05-06 12:03 | 35.35178 | -57.99062 | 40171 ft | 398 kts | 227° |
| 2026-05-06 12:03 | 35.31726 | -58.04339 | 40162 ft | 399 kts | 227° |
| 2026-05-06 12:04 | 35.28269 | -58.09616 | 40151 ft | 397 kts | 228° |
| 2026-05-06 12:04 | 35.24784 | -58.14927 | 40147 ft | 402 kts | 227° |
| 2026-05-06 12:05 | 35.21291 | -58.20244 | 40146 ft | 398 kts | 228° |
| 2026-05-06 12:05 | 35.17835 | -58.25494 | 40136 ft | 400 kts | 228° |
| 2026-05-06 12:06 | 35.14360 | -58.30766 | 40139 ft | 399 kts | 227° |
| 2026-05-06 12:06 | 35.10860 | -58.36068 | 40126 ft | 400 kts | 227° |
| 2026-05-06 12:07 | 35.07377 | -58.41338 | 40126 ft | 399 kts | 227° |
| 2026-05-06 12:07 | 35.03847 | -58.46668 | 40113 ft | 403 kts | 228° |
| 2026-05-06 12:08 | 35.00332 | -58.51969 | 40112 ft | 402 kts | 227° |
| 2026-05-06 12:08 | 34.96839 | -58.57229 | 40100 ft | 400 kts | 227° |
| 2026-05-06 12:09 | 34.93329 | -58.62505 | 40094 ft | 401 kts | 228° |
| 2026-05-06 12:09 | 34.89811 | -58.67785 | 40090 ft | 402 kts | 227° |
| 2026-05-06 12:10 | 34.86306 | -58.73042 | 40119 ft | 399 kts | 226° |
| 2026-05-06 12:10 | 34.82811 | -58.78270 | 40113 ft | 402 kts | 227° |
| 2026-05-06 12:11 | 34.79293 | -58.83528 | 40109 ft | 399 kts | 226° |
| 2026-05-06 12:11 | 34.75799 | -58.88744 | 40098 ft | 399 kts | 227° |
| 2026-05-06 12:12 | 34.72292 | -58.93968 | 40104 ft | 399 kts | 227° |
| 2026-05-06 12:12 | 34.68775 | -58.99202 | 40102 ft | 397 kts | 227° |
| 2026-05-06 12:13 | 34.65269 | -59.04408 | 40089 ft | 402 kts | 227° |
| 2026-05-06 12:13 | 34.61740 | -59.09645 | 40086 ft | 396 kts | 227° |
| 2026-05-06 12:14 | 34.58227 | -59.14848 | 40089 ft | 400 kts | 227° |
| 2026-05-06 12:14 | 34.54701 | -59.20062 | 40075 ft | 399 kts | 227° |
| 2026-05-06 12:15 | 34.51205 | -59.25225 | 40083 ft | 398 kts | 227° |
| 2026-05-06 12:15 | 34.47704 | -59.30389 | 40077 ft | 398 kts | 227° |
| 2026-05-06 12:16 | 34.44194 | -59.35558 | 40073 ft | 398 kts | 227° |
| 2026-05-06 12:16 | 34.40648 | -59.40770 | 40076 ft | 400 kts | 227° |
| 2026-05-06 12:17 | 34.37125 | -59.45945 | 40065 ft | 399 kts | 227° |
| 2026-05-06 12:17 | 34.33591 | -59.51125 | 40061 ft | 398 kts | 227° |
| 2026-05-06 12:18 | 34.30082 | -59.56263 | 40053 ft | 399 kts | 227° |
| 2026-05-06 12:18 | 34.26563 | -59.61407 | 40065 ft | 400 kts | 227° |
| 2026-05-06 12:19 | 34.23011 | -59.66592 | 40067 ft | 398 kts | 227° |
| 2026-05-06 12:19 | 34.19500 | -59.71710 | 40061 ft | 398 kts | 227° |
| 2026-05-06 12:20 | 34.15950 | -59.76876 | 40061 ft | 399 kts | 226° |
| 2026-05-06 12:20 | 34.12428 | -59.81996 | 40047 ft | 397 kts | 227° |
| 2026-05-06 12:21 | 34.08904 | -59.87111 | 40041 ft | 398 kts | 227° |
| 2026-05-06 12:21 | 34.05367 | -59.92236 | 40049 ft | 398 kts | 227° |
| 2026-05-06 12:22 | 34.01817 | -59.97372 | 40046 ft | 398 kts | 226° |
| 2026-05-06 12:22 | 33.97771 | -60.01830 | 40035 ft | 398 kts | 216° |
| 2026-05-06 12:23 | 33.93423 | -60.05909 | 40041 ft | 396 kts | 216° |
| 2026-05-06 12:23 | 33.89040 | -60.09961 | 40052 ft | 395 kts | 216° |
| 2026-05-06 12:24 | 33.84674 | -60.13963 | 40055 ft | 398 kts | 216° |
| 2026-05-06 12:24 | 33.80280 | -60.17974 | 40053 ft | 399 kts | 216° |
| 2026-05-06 12:25 | 33.75850 | -60.22006 | 40054 ft | 397 kts | 216° |
| 2026-05-06 12:25 | 33.71451 | -60.26001 | 40054 ft | 399 kts | 216° |
| 2026-05-06 12:26 | 33.67006 | -60.30031 | 40052 ft | 398 kts | 216° |
| 2026-05-06 12:26 | 33.62582 | -60.34036 | 40051 ft | 399 kts | 216° |
| 2026-05-06 12:27 | 33.58165 | -60.38029 | 40040 ft | 398 kts | 216° |
| 2026-05-06 12:27 | 33.53730 | -60.42033 | 40054 ft | 399 kts | 216° |
| 2026-05-06 12:28 | 33.49305 | -60.46022 | 40043 ft | 398 kts | 216° |
| 2026-05-06 12:28 | 33.44875 | -60.50011 | 40041 ft | 399 kts | 216° |
| 2026-05-06 12:29 | 33.40419 | -60.54018 | 40040 ft | 398 kts | 216° |
| 2026-05-06 12:29 | 33.35996 | -60.57990 | 40035 ft | 399 kts | 216° |
| 2026-05-06 12:30 | 33.31549 | -60.61978 | 40031 ft | 400 kts | 216° |
| 2026-05-06 12:30 | 33.27099 | -60.65964 | 40040 ft | 400 kts | 216° |
| 2026-05-06 12:31 | 33.22649 | -60.69944 | 40036 ft | 401 kts | 215° |
| 2026-05-06 12:31 | 33.18196 | -60.73923 | 40031 ft | 401 kts | 215° |
| 2026-05-06 12:32 | 33.13736 | -60.77902 | 40023 ft | 400 kts | 216° |
| 2026-05-06 12:32 | 33.09286 | -60.81867 | 40016 ft | 401 kts | 216° |
| 2026-05-06 12:33 | 33.04817 | -60.85843 | 40018 ft | 402 kts | 216° |
| 2026-05-06 12:33 | 33.00329 | -60.89832 | 40023 ft | 402 kts | 216° |
| 2026-05-06 12:34 | 32.95828 | -60.93828 | 40024 ft | 403 kts | 216° |
| 2026-05-06 12:34 | 32.91344 | -60.97802 | 40022 ft | 405 kts | 216° |
| 2026-05-06 12:35 | 32.86852 | -61.01780 | 40036 ft | 403 kts | 216° |
| 2026-05-06 12:35 | 32.82348 | -61.05761 | 40045 ft | 405 kts | 216° |
| 2026-05-06 12:36 | 32.77848 | -61.09734 | 40032 ft | 403 kts | 216° |
| 2026-05-06 12:36 | 32.73352 | -61.13699 | 40042 ft | 404 kts | 216° |
| 2026-05-06 12:37 | 32.68855 | -61.17733 | 40030 ft | 406 kts | 220° |
| 2026-05-06 12:37 | 32.65295 | -61.22980 | 40041 ft | 413 kts | 237° |
| 2026-05-06 12:38 | 32.62529 | -61.28927 | 40039 ft | 414 kts | 237° |
| 2026-05-06 12:38 | 32.59753 | -61.34909 | 40049 ft | 415 kts | 238° |
| 2026-05-06 12:39 | 32.56958 | -61.40907 | 40045 ft | 415 kts | 237° |
| 2026-05-06 12:39 | 32.54178 | -61.46857 | 40047 ft | 416 kts | 237° |
| 2026-05-06 12:40 | 32.51368 | -61.52857 | 40045 ft | 416 kts | 237° |
| 2026-05-06 12:40 | 32.48558 | -61.58844 | 40048 ft | 417 kts | 237° |
| 2026-05-06 12:41 | 32.45740 | -61.64839 | 40044 ft | 418 kts | 237° |
| 2026-05-06 12:41 | 32.42923 | -61.70823 | 40057 ft | 418 kts | 237° |
| 2026-05-06 12:42 | 32.40076 | -61.76859 | 40051 ft | 419 kts | 237° |
| 2026-05-06 12:42 | 32.37231 | -61.82879 | 40051 ft | 419 kts | 238° |
| 2026-05-06 12:43 | 32.34390 | -61.88883 | 40063 ft | 423 kts | 237° |
| 2026-05-06 12:43 | 32.31516 | -61.94946 | 40057 ft | 422 kts | 237° |
| 2026-05-06 12:44 | 32.28632 | -62.01020 | 40049 ft | 424 kts | 237° |
| 2026-05-06 12:44 | 32.25753 | -62.07076 | 40064 ft | 423 kts | 238° |
| 2026-05-06 12:45 | 32.22871 | -62.13126 | 40048 ft | 425 kts | 238° |
| 2026-05-06 12:46 | 32.18543 | -62.22193 | 40058 ft | 425 kts | 238° |
| 2026-05-06 12:46 | 32.15650 | -62.28241 | 40058 ft | 426 kts | 238° |
| 2026-05-06 12:47 | 32.12743 | -62.34308 | 40054 ft | 428 kts | 238° |
| 2026-05-06 12:47 | 32.09806 | -62.40429 | 40068 ft | 430 kts | 239° |
| 2026-05-06 12:48 | 32.06868 | -62.46542 | 40061 ft | 429 kts | 239° |
| 2026-05-06 12:48 | 32.03925 | -62.52657 | 40055 ft | 428 kts | 239° |
| 2026-05-06 12:49 | 32.00976 | -62.58770 | 40071 ft | 431 kts | 239° |
| 2026-05-06 12:49 | 31.98016 | -62.64899 | 40067 ft | 431 kts | 239° |
| 2026-05-06 12:50 | 31.95034 | -62.71063 | 40095 ft | 433 kts | 239° |
| 2026-05-06 12:50 | 31.92060 | -62.77199 | 40096 ft | 434 kts | 239° |
| 2026-05-06 12:51 | 31.89082 | -62.83334 | 40095 ft | 432 kts | 239° |
| 2026-05-06 12:51 | 31.86087 | -62.89494 | 40098 ft | 438 kts | 239° |
| 2026-05-06 12:52 | 31.83074 | -62.95682 | 40098 ft | 436 kts | 240° |
| 2026-05-06 12:52 | 31.80040 | -63.01902 | 40104 ft | 438 kts | 240° |
| 2026-05-06 12:53 | 31.77012 | -63.08099 | 40110 ft | 439 kts | 240° |
| 2026-05-06 12:53 | 31.73975 | -63.14305 | 40108 ft | 439 kts | 240° |
| 2026-05-06 12:54 | 31.70943 | -63.20490 | 40103 ft | 440 kts | 240° |
| 2026-05-06 12:54 | 31.67900 | -63.26686 | 40112 ft | 439 kts | 241° |
| 2026-05-06 12:55 | 31.64844 | -63.32900 | 40107 ft | 438 kts | 241° |
| 2026-05-06 12:55 | 31.61798 | -63.39084 | 40114 ft | 442 kts | 241° |
| 2026-05-06 12:56 | 31.58731 | -63.45300 | 40113 ft | 440 kts | 241° |
| 2026-05-06 12:56 | 31.55725 | -63.51382 | 40118 ft | 443 kts | 242° |
| 2026-05-06 12:57 | 31.52635 | -63.57623 | 40116 ft | 442 kts | 242° |
| 2026-05-06 12:57 | 31.49551 | -63.63842 | 40120 ft | 443 kts | 242° |
| 2026-05-06 12:58 | 31.46478 | -63.70030 | 40129 ft | 443 kts | 241° |
| 2026-05-06 12:58 | 31.43358 | -63.76301 | 40131 ft | 445 kts | 241° |
| 2026-05-06 12:59 | 31.40248 | -63.82542 | 40134 ft | 446 kts | 241° |
| 2026-05-06 12:59 | 31.37130 | -63.88791 | 40135 ft | 445 kts | 242° |
| 2026-05-06 13:00 | 31.34015 | -63.95020 | 40136 ft | 448 kts | 242° |
| 2026-05-06 13:00 | 31.30865 | -64.01311 | 40135 ft | 446 kts | 242° |
| 2026-05-06 13:01 | 31.27745 | -64.07531 | 40137 ft | 447 kts | 242° |
| 2026-05-06 13:01 | 31.24611 | -64.13771 | 40137 ft | 448 kts | 242° |
| 2026-05-06 13:02 | 31.21438 | -64.20077 | 40139 ft | 449 kts | 242° |
| 2026-05-06 13:02 | 31.18278 | -64.26347 | 40133 ft | 451 kts | 242° |
| 2026-05-06 13:03 | 31.15120 | -64.32600 | 40135 ft | 450 kts | 243° |
| 2026-05-06 13:03 | 31.11929 | -64.38912 | 40132 ft | 451 kts | 243° |
| 2026-05-06 13:04 | 31.08748 | -64.45191 | 40132 ft | 451 kts | 243° |
| 2026-05-06 13:04 | 31.05550 | -64.51495 | 40134 ft | 450 kts | 243° |
| 2026-05-06 13:05 | 31.02354 | -64.57786 | 40132 ft | 452 kts | 243° |
| 2026-05-06 13:05 | 30.99145 | -64.64089 | 40136 ft | 451 kts | 243° |
| 2026-05-06 13:06 | 30.95950 | -64.70358 | 40144 ft | 452 kts | 243° |
| 2026-05-06 13:06 | 30.92731 | -64.76662 | 40161 ft | 453 kts | 243° |
| 2026-05-06 13:07 | 30.89515 | -64.82948 | 40157 ft | 453 kts | 243° |
| 2026-05-06 13:07 | 30.86295 | -64.89235 | 40156 ft | 455 kts | 243° |
| 2026-05-06 13:08 | 30.83050 | -64.95560 | 40166 ft | 454 kts | 243° |
| 2026-05-06 13:08 | 30.79801 | -65.01881 | 40162 ft | 456 kts | 243° |
| 2026-05-06 13:09 | 30.76547 | -65.08201 | 40163 ft | 456 kts | 244° |
| 2026-05-06 13:09 | 30.73305 | -65.14489 | 40162 ft | 456 kts | 244° |
| 2026-05-06 13:10 | 30.70046 | -65.20798 | 40165 ft | 453 kts | 244° |
| 2026-05-06 13:10 | 30.66787 | -65.27100 | 40158 ft | 457 kts | 244° |
| 2026-05-06 13:11 | 30.63505 | -65.33435 | 40166 ft | 457 kts | 244° |
| 2026-05-06 13:11 | 30.60229 | -65.39747 | 40166 ft | 457 kts | 244° |
| 2026-05-06 13:12 | 30.56961 | -65.46034 | 40164 ft | 456 kts | 244° |
| 2026-05-06 13:12 | 30.53693 | -65.52311 | 40162 ft | 456 kts | 245° |
| 2026-05-06 13:13 | 30.50407 | -65.58614 | 40166 ft | 457 kts | 245° |
| 2026-05-06 13:13 | 30.47127 | -65.64895 | 40166 ft | 457 kts | 245° |
| 2026-05-06 13:14 | 30.43811 | -65.71234 | 40179 ft | 457 kts | 244° |
| 2026-05-06 13:14 | 30.40494 | -65.77565 | 40179 ft | 458 kts | 245° |
| 2026-05-06 13:15 | 30.37187 | -65.83868 | 40185 ft | 462 kts | 245° |
| 2026-05-06 13:15 | 30.33854 | -65.90208 | 40182 ft | 461 kts | 245° |
| 2026-05-06 13:16 | 30.30548 | -65.96487 | 40182 ft | 461 kts | 245° |
| 2026-05-06 13:16 | 30.27218 | -66.02801 | 40181 ft | 461 kts | 245° |
| 2026-05-06 13:17 | 30.23881 | -66.09120 | 40183 ft | 463 kts | 245° |
| 2026-05-06 13:17 | 30.20532 | -66.15452 | 40179 ft | 462 kts | 245° |
| 2026-05-06 13:18 | 30.17166 | -66.21804 | 40185 ft | 461 kts | 245° |
| 2026-05-06 13:18 | 30.13802 | -66.28142 | 40180 ft | 459 kts | 245° |
| 2026-05-06 13:19 | 30.10455 | -66.34441 | 40185 ft | 461 kts | 245° |
| 2026-05-06 13:19 | 30.07114 | -66.40717 | 40188 ft | 459 kts | 245° |
| 2026-05-06 13:20 | 30.03782 | -66.46965 | 40183 ft | 459 kts | 245° |
| 2026-05-06 13:20 | 30.00421 | -66.53262 | 40186 ft | 462 kts | 245° |
| 2026-05-06 13:21 | 29.97067 | -66.59532 | 40178 ft | 462 kts | 245° |
| 2026-05-06 13:21 | 29.93708 | -66.65803 | 40179 ft | 462 kts | 245° |
| 2026-05-06 13:22 | 29.90322 | -66.72121 | 40189 ft | 463 kts | 245° |
| 2026-05-06 13:22 | 29.87015 | -66.78459 | 40175 ft | 461 kts | 245° |
| 2026-05-06 13:23 | 29.83720 | -66.84774 | 40164 ft | 462 kts | 245° |
| 2026-05-06 13:23 | 29.80392 | -66.91137 | 40167 ft | 462 kts | 246° |
| 2026-05-06 13:24 | 29.77087 | -66.97440 | 40174 ft | 462 kts | 246° |
| 2026-05-06 13:24 | 29.73779 | -67.03739 | 40178 ft | 463 kts | 246° |
| 2026-05-06 13:25 | 29.70454 | -67.10061 | 40165 ft | 463 kts | 245° |
| 2026-05-06 13:25 | 29.67121 | -67.16386 | 40169 ft | 463 kts | 246° |
| 2026-05-06 13:26 | 29.63784 | -67.22710 | 40166 ft | 465 kts | 246° |
| 2026-05-06 13:26 | 29.60428 | -67.29059 | 40165 ft | 464 kts | 246° |
| 2026-05-06 13:27 | 29.57088 | -67.35370 | 40167 ft | 466 kts | 246° |
| 2026-05-06 13:27 | 29.53727 | -67.41706 | 40170 ft | 465 kts | 246° |
| 2026-05-06 13:28 | 29.50366 | -67.48035 | 40166 ft | 465 kts | 246° |
| 2026-05-06 13:28 | 29.47009 | -67.54346 | 40159 ft | 465 kts | 246° |
| 2026-05-06 13:29 | 29.43632 | -67.60686 | 40161 ft | 467 kts | 246° |
| 2026-05-06 13:29 | 29.40254 | -67.67017 | 40166 ft | 465 kts | 245° |
| 2026-05-06 13:30 | 29.36892 | -67.73309 | 40167 ft | 466 kts | 246° |
| 2026-05-06 13:30 | 29.33497 | -67.79652 | 40162 ft | 466 kts | 246° |
| 2026-05-06 13:31 | 29.30103 | -67.85984 | 40163 ft | 467 kts | 246° |
| 2026-05-06 13:31 | 29.26725 | -67.92275 | 40165 ft | 466 kts | 246° |
| 2026-05-06 13:32 | 29.23317 | -67.98614 | 40162 ft | 467 kts | 245° |
| 2026-05-06 13:32 | 29.19918 | -68.04926 | 40161 ft | 468 kts | 245° |
| 2026-05-06 13:33 | 29.16495 | -68.11274 | 40162 ft | 469 kts | 246° |
| 2026-05-06 13:33 | 29.13073 | -68.17609 | 40161 ft | 468 kts | 246° |
| 2026-05-06 13:34 | 29.09662 | -68.23914 | 40161 ft | 469 kts | 246° |
| 2026-05-06 13:34 | 29.06240 | -68.30228 | 40160 ft | 469 kts | 246° |
| 2026-05-06 13:35 | 29.02800 | -68.36568 | 40161 ft | 470 kts | 246° |
| 2026-05-06 13:35 | 28.99362 | -68.42894 | 40160 ft | 469 kts | 246° |
| 2026-05-06 13:36 | 28.95925 | -68.49208 | 40161 ft | 470 kts | 246° |
| 2026-05-06 13:36 | 28.92472 | -68.55544 | 40161 ft | 471 kts | 246° |
| 2026-05-06 13:37 | 28.89031 | -68.61844 | 40145 ft | 470 kts | 246° |
| 2026-05-06 13:37 | 28.85566 | -68.68182 | 40155 ft | 471 kts | 246° |
| 2026-05-06 13:38 | 28.82114 | -68.74487 | 40154 ft | 472 kts | 246° |
| 2026-05-06 13:38 | 28.78635 | -68.80827 | 40156 ft | 472 kts | 246° |
| 2026-05-06 13:39 | 28.75161 | -68.87151 | 40156 ft | 473 kts | 246° |
| 2026-05-06 13:39 | 28.71659 | -68.93516 | 40154 ft | 472 kts | 246° |
| 2026-05-06 13:40 | 28.68205 | -68.99783 | 40156 ft | 473 kts | 246° |
| 2026-05-06 13:40 | 28.64690 | -69.06152 | 40155 ft | 473 kts | 246° |
| 2026-05-06 13:41 | 28.61201 | -69.12463 | 40156 ft | 473 kts | 246° |
| 2026-05-06 13:41 | 28.57706 | -69.18776 | 40154 ft | 472 kts | 246° |
| 2026-05-06 13:42 | 28.54210 | -69.25082 | 40156 ft | 474 kts | 246° |
| 2026-05-06 13:42 | 28.50690 | -69.31422 | 40154 ft | 472 kts | 246° |
| 2026-05-06 13:43 | 28.47202 | -69.37696 | 40155 ft | 476 kts | 246° |
| 2026-05-06 13:43 | 28.43675 | -69.44029 | 40155 ft | 474 kts | 246° |
| 2026-05-06 13:44 | 28.40143 | -69.50361 | 40154 ft | 473 kts | 246° |
| 2026-05-06 13:44 | 28.36633 | -69.56644 | 40154 ft | 472 kts | 246° |
| 2026-05-06 13:45 | 28.33110 | -69.62945 | 40154 ft | 476 kts | 246° |
| 2026-05-06 13:45 | 28.27817 | -69.72388 | 40163 ft | 475 kts | 245° |
| 2026-05-06 13:46 | 28.24264 | -69.78716 | 40164 ft | 475 kts | 245° |
| 2026-05-06 13:46 | 28.20732 | -69.84996 | 40164 ft | 475 kts | 246° |
| 2026-05-06 13:47 | 28.17195 | -69.91278 | 40163 ft | 475 kts | 246° |
| 2026-05-06 13:47 | 28.13657 | -69.97553 | 40166 ft | 476 kts | 245° |
| 2026-05-06 13:48 | 28.10098 | -70.03854 | 40163 ft | 476 kts | 246° |
| 2026-05-06 13:48 | 28.06524 | -70.10171 | 40164 ft | 475 kts | 246° |
| 2026-05-06 13:49 | 28.02979 | -70.16428 | 40166 ft | 475 kts | 246° |
| 2026-05-06 13:49 | 27.99413 | -70.22716 | 40163 ft | 475 kts | 245° |
| 2026-05-06 13:50 | 27.95841 | -70.29002 | 40162 ft | 474 kts | 246° |
| 2026-05-06 13:50 | 27.92271 | -70.35281 | 40165 ft | 477 kts | 246° |
| 2026-05-06 13:51 | 27.88710 | -70.41528 | 40140 ft | 474 kts | 246° |
| 2026-05-06 13:51 | 27.85128 | -70.47807 | 40143 ft | 477 kts | 246° |
| 2026-05-06 13:52 | 27.81551 | -70.54064 | 40145 ft | 475 kts | 246° |
| 2026-05-06 13:52 | 27.77963 | -70.60335 | 40144 ft | 476 kts | 246° |
| 2026-05-06 13:53 | 27.74375 | -70.66595 | 40147 ft | 476 kts | 245° |
| 2026-05-06 13:53 | 27.70803 | -70.72819 | 40152 ft | 477 kts | 245° |
| 2026-05-06 13:54 | 27.67212 | -70.79068 | 40147 ft | 475 kts | 245° |
| 2026-05-06 13:54 | 27.63623 | -70.85303 | 40151 ft | 474 kts | 245° |
| 2026-05-06 13:55 | 27.60022 | -70.91551 | 40152 ft | 475 kts | 246° |
| 2026-05-06 13:55 | 27.56432 | -70.97772 | 40152 ft | 475 kts | 246° |
| 2026-05-06 13:56 | 27.52850 | -71.03968 | 40145 ft | 475 kts | 246° |
| 2026-05-06 13:56 | 27.49229 | -71.10222 | 40147 ft | 476 kts | 246° |
| 2026-05-06 13:57 | 27.45621 | -71.16447 | 40139 ft | 479 kts | 246° |
| 2026-05-06 13:57 | 27.42007 | -71.22667 | 40141 ft | 476 kts | 246° |
| 2026-05-06 13:58 | 27.38376 | -71.28912 | 40134 ft | 476 kts | 246° |
| 2026-05-06 13:58 | 27.34748 | -71.35143 | 40130 ft | 477 kts | 246° |
| 2026-05-06 13:59 | 27.31115 | -71.41373 | 40133 ft | 477 kts | 246° |
| 2026-05-06 13:59 | 27.27474 | -71.47608 | 40133 ft | 478 kts | 246° |
| 2026-05-06 14:00 | 27.23836 | -71.53831 | 40130 ft | 479 kts | 246° |
| 2026-05-06 14:00 | 27.20202 | -71.60036 | 40139 ft | 480 kts | 246° |
| 2026-05-06 14:01 | 27.16541 | -71.66278 | 40143 ft | 479 kts | 246° |
| 2026-05-06 14:01 | 27.12864 | -71.72541 | 40147 ft | 481 kts | 246° |
| 2026-05-06 14:02 | 27.09208 | -71.78755 | 40149 ft | 479 kts | 246° |
| 2026-05-06 14:02 | 27.05512 | -71.85033 | 40145 ft | 479 kts | 246° |
| 2026-05-06 14:03 | 27.01837 | -71.91266 | 40147 ft | 483 kts | 246° |
| 2026-05-06 14:03 | 26.98162 | -71.97488 | 40147 ft | 482 kts | 246° |
| 2026-05-06 14:04 | 26.94465 | -72.03735 | 40143 ft | 477 kts | 246° |
| 2026-05-06 14:04 | 26.90787 | -72.09948 | 40144 ft | 479 kts | 246° |
| 2026-05-06 14:05 | 26.87108 | -72.16154 | 40122 ft | 484 kts | 246° |
| 2026-05-06 14:05 | 26.83415 | -72.22370 | 40121 ft | 479 kts | 246° |
| 2026-05-06 14:06 | 26.79712 | -72.28596 | 40122 ft | 480 kts | 246° |
| 2026-05-06 14:06 | 26.76017 | -72.34804 | 40117 ft | 482 kts | 246° |
| 2026-05-06 14:07 | 26.72295 | -72.41044 | 40114 ft | 480 kts | 246° |
| 2026-05-06 14:07 | 26.68573 | -72.47280 | 40115 ft | 486 kts | 246° |
| 2026-05-06 14:08 | 26.64832 | -72.53529 | 40112 ft | 479 kts | 246° |
| 2026-05-06 14:08 | 26.61116 | -72.59737 | 40112 ft | 482 kts | 246° |
| 2026-05-06 14:09 | 26.57366 | -72.65994 | 40118 ft | 485 kts | 246° |
| 2026-05-06 14:09 | 26.53637 | -72.72205 | 40120 ft | 486 kts | 246° |
| 2026-05-06 14:10 | 26.49840 | -72.78516 | 40121 ft | 483 kts | 246° |
| 2026-05-06 14:10 | 26.46102 | -72.84723 | 40122 ft | 485 kts | 246° |
| 2026-05-06 14:11 | 26.42349 | -72.90948 | 40121 ft | 482 kts | 246° |
| 2026-05-06 14:11 | 26.38594 | -72.97168 | 40117 ft | 484 kts | 246° |
| 2026-05-06 14:12 | 26.34843 | -73.03371 | 40118 ft | 485 kts | 246° |
| 2026-05-06 14:12 | 26.31061 | -73.09618 | 40118 ft | 483 kts | 246° |
| 2026-05-06 14:13 | 26.27314 | -73.15800 | 40119 ft | 486 kts | 246° |
| 2026-05-06 14:13 | 26.23535 | -73.22025 | 40121 ft | 486 kts | 246° |
| 2026-05-06 14:14 | 26.19761 | -73.28230 | 40120 ft | 483 kts | 246° |
| 2026-05-06 14:14 | 26.15947 | -73.34498 | 40120 ft | 486 kts | 246° |
| 2026-05-06 14:15 | 26.12159 | -73.40713 | 40120 ft | 487 kts | 246° |
| 2026-05-06 14:15 | 26.08345 | -73.46960 | 40123 ft | 485 kts | 246° |
| 2026-05-06 14:16 | 26.04560 | -73.53153 | 40122 ft | 486 kts | 246° |
| 2026-05-06 14:16 | 26.00790 | -73.59309 | 40121 ft | 483 kts | 246° |
| 2026-05-06 14:17 | 25.96970 | -73.65546 | 40123 ft | 487 kts | 245° |
| 2026-05-06 14:17 | 25.93386 | -73.71787 | 40123 ft | 474 kts | 253° |
| 2026-05-06 14:18 | 25.91268 | -73.78562 | 40132 ft | 458 kts | 265° |
| 2026-05-06 14:18 | 25.89744 | -73.85345 | 40117 ft | 453 kts | 265° |
| 2026-05-06 14:19 | 25.88207 | -73.92152 | 40102 ft | 457 kts | 265° |
| 2026-05-06 14:19 | 25.86651 | -73.98963 | 40108 ft | 453 kts | 265° |
| 2026-05-06 14:20 | 25.85096 | -74.05753 | 40108 ft | 456 kts | 265° |
| 2026-05-06 14:20 | 25.83529 | -74.12548 | 40106 ft | 454 kts | 265° |
| 2026-05-06 14:21 | 25.81968 | -74.19314 | 40108 ft | 457 kts | 265° |
| 2026-05-06 14:21 | 25.80395 | -74.26099 | 40107 ft | 455 kts | 265° |
| 2026-05-06 14:22 | 25.78822 | -74.32873 | 40098 ft | 455 kts | 265° |
| 2026-05-06 14:22 | 25.77246 | -74.39643 | 40103 ft | 453 kts | 265° |
| 2026-05-06 14:23 | 25.75659 | -74.46448 | 40104 ft | 454 kts | 265° |
| 2026-05-06 14:23 | 25.74082 | -74.53190 | 40105 ft | 456 kts | 265° |
| 2026-05-06 14:24 | 25.72495 | -74.59958 | 40103 ft | 454 kts | 264° |
| 2026-05-06 14:24 | 25.70904 | -74.66731 | 40109 ft | 455 kts | 264° |
| 2026-05-06 14:25 | 25.69323 | -74.73447 | 40112 ft | 452 kts | 264° |
| 2026-05-06 14:25 | 25.67729 | -74.80203 | 40106 ft | 454 kts | 264° |
| 2026-05-06 14:26 | 25.66136 | -74.86935 | 40108 ft | 450 kts | 264° |
| 2026-05-06 14:26 | 25.64548 | -74.93643 | 40108 ft | 454 kts | 264° |
| 2026-05-06 14:27 | 25.62944 | -75.00395 | 40105 ft | 452 kts | 264° |
| 2026-05-06 14:27 | 25.61352 | -75.07083 | 40104 ft | 453 kts | 264° |
| 2026-05-06 14:28 | 25.59742 | -75.13834 | 40104 ft | 454 kts | 263° |
| 2026-05-06 14:28 | 25.58127 | -75.20586 | 40101 ft | 455 kts | 263° |
| 2026-05-06 14:29 | 25.56515 | -75.27314 | 40098 ft | 454 kts | 263° |
| 2026-05-06 14:29 | 25.54897 | -75.34053 | 40100 ft | 455 kts | 263° |
| 2026-05-06 14:30 | 25.53269 | -75.40816 | 40099 ft | 454 kts | 263° |
| 2026-05-06 14:30 | 25.51645 | -75.47549 | 40093 ft | 453 kts | 263° |
| 2026-05-06 14:31 | 25.50024 | -75.54257 | 40093 ft | 455 kts | 263° |
| 2026-05-06 14:31 | 25.48393 | -75.60991 | 40095 ft | 455 kts | 263° |
| 2026-05-06 14:32 | 25.46748 | -75.67765 | 40104 ft | 455 kts | 263° |
| 2026-05-06 14:32 | 25.45103 | -75.74528 | 40100 ft | 455 kts | 263° |
| 2026-05-06 14:33 | 25.43458 | -75.81275 | 40100 ft | 454 kts | 263° |
| 2026-05-06 14:33 | 25.41810 | -75.88024 | 40097 ft | 456 kts | 263° |
| 2026-05-06 14:34 | 25.40157 | -75.94774 | 40096 ft | 455 kts | 263° |
| 2026-05-06 14:34 | 25.38508 | -76.01495 | 40097 ft | 455 kts | 263° |
| 2026-05-06 14:35 | 25.36848 | -76.08246 | 40096 ft | 457 kts | 262° |
| 2026-05-06 14:35 | 25.35176 | -76.15028 | 40094 ft | 454 kts | 263° |
| 2026-05-06 14:36 | 25.33516 | -76.21755 | 40094 ft | 455 kts | 262° |